<?xml version="1.0" encoding="UTF-8" standalone="no" ?>
<gpx xmlns="http://www.topografix.com/GPX/1/1" xmlns:xsi="http://www.w3.org/2001/XMLSchema-instance" xsi:schemaLocation="http://www.topografix.com/GPX/1/1 http://www.topografix.com/GPX/1/1/gpx.xsd" version="1.1" creator="VisuGPX - https://www.visugpx.com">
  <metadata>
    <name>vaugneray </name>
    <desc><![CDATA[Sortie cyclocrampons à vaugneray]]></desc>
  </metadata>
  <trk>
    <name><![CDATA[ACTIVE LOG080815]]></name>
    <trkseg>
      <trkpt lat="45.73876" lon="4.65717">
        <ele>425</ele>
        <time>2012-08-11T06:08:13Z</time>
      </trkpt>
      <trkpt lat="45.73886" lon="4.65717">
        <ele>426</ele>
        <time>2012-08-11T06:09:24Z</time>
      </trkpt>
      <trkpt lat="45.73888" lon="4.65718">
        <ele>426</ele>
        <time>2012-08-11T06:09:25Z</time>
      </trkpt>
      <trkpt lat="45.739" lon="4.65719">
        <ele>427</ele>
        <time>2012-08-11T06:09:32Z</time>
      </trkpt>
      <trkpt lat="45.73919" lon="4.6572">
        <ele>435</ele>
        <time>2012-08-11T06:09:43Z</time>
      </trkpt>
      <trkpt lat="45.73936" lon="4.65713">
        <ele>436</ele>
        <time>2012-08-11T06:09:53Z</time>
      </trkpt>
      <trkpt lat="45.73958" lon="4.65694">
        <ele>437</ele>
        <time>2012-08-11T06:10:06Z</time>
      </trkpt>
      <trkpt lat="45.73978" lon="4.65683">
        <ele>439</ele>
        <time>2012-08-11T06:10:18Z</time>
      </trkpt>
      <trkpt lat="45.73998" lon="4.65672">
        <ele>441</ele>
        <time>2012-08-11T06:10:30Z</time>
      </trkpt>
      <trkpt lat="45.74012" lon="4.6566">
        <ele>444</ele>
        <time>2012-08-11T06:10:40Z</time>
      </trkpt>
      <trkpt lat="45.74025" lon="4.65644">
        <ele>446</ele>
        <time>2012-08-11T06:10:49Z</time>
      </trkpt>
      <trkpt lat="45.74036" lon="4.65627">
        <ele>447</ele>
        <time>2012-08-11T06:10:59Z</time>
      </trkpt>
      <trkpt lat="45.74046" lon="4.65605">
        <ele>448</ele>
        <time>2012-08-11T06:11:10Z</time>
      </trkpt>
      <trkpt lat="45.74048" lon="4.65602">
        <ele>448</ele>
        <time>2012-08-11T06:11:12Z</time>
      </trkpt>
      <trkpt lat="45.74059" lon="4.65601">
        <ele>449</ele>
        <time>2012-08-11T06:11:18Z</time>
      </trkpt>
      <trkpt lat="45.74063" lon="4.65602">
        <ele>450</ele>
        <time>2012-08-11T06:11:21Z</time>
      </trkpt>
      <trkpt lat="45.74069" lon="4.65596">
        <ele>451</ele>
        <time>2012-08-11T06:11:26Z</time>
      </trkpt>
      <trkpt lat="45.74072" lon="4.6559">
        <ele>451</ele>
        <time>2012-08-11T06:11:31Z</time>
      </trkpt>
      <trkpt lat="45.74076" lon="4.65583">
        <ele>452</ele>
        <time>2012-08-11T06:11:35Z</time>
      </trkpt>
      <trkpt lat="45.74089" lon="4.6556">
        <ele>455</ele>
        <time>2012-08-11T06:11:45Z</time>
      </trkpt>
      <trkpt lat="45.741" lon="4.65539">
        <ele>455</ele>
        <time>2012-08-11T06:11:54Z</time>
      </trkpt>
      <trkpt lat="45.74117" lon="4.65513">
        <ele>455</ele>
        <time>2012-08-11T06:12:04Z</time>
      </trkpt>
      <trkpt lat="45.74144" lon="4.65482">
        <ele>452</ele>
        <time>2012-08-11T06:12:15Z</time>
      </trkpt>
      <trkpt lat="45.74171" lon="4.65455">
        <ele>456</ele>
        <time>2012-08-11T06:12:25Z</time>
      </trkpt>
      <trkpt lat="45.74199" lon="4.65429">
        <ele>456</ele>
        <time>2012-08-11T06:12:37Z</time>
      </trkpt>
      <trkpt lat="45.74226" lon="4.65396">
        <ele>453</ele>
        <time>2012-08-11T06:12:50Z</time>
      </trkpt>
      <trkpt lat="45.74249" lon="4.65356">
        <ele>452</ele>
        <time>2012-08-11T06:13:02Z</time>
      </trkpt>
      <trkpt lat="45.74282" lon="4.65304">
        <ele>455</ele>
        <time>2012-08-11T06:13:14Z</time>
      </trkpt>
      <trkpt lat="45.74299" lon="4.65297">
        <ele>456</ele>
        <time>2012-08-11T06:13:18Z</time>
      </trkpt>
      <trkpt lat="45.74328" lon="4.65299">
        <ele>458</ele>
        <time>2012-08-11T06:13:28Z</time>
      </trkpt>
      <trkpt lat="45.74345" lon="4.65302">
        <ele>466</ele>
        <time>2012-08-11T06:13:37Z</time>
      </trkpt>
      <trkpt lat="45.74367" lon="4.65302">
        <ele>468</ele>
        <time>2012-08-11T06:13:48Z</time>
      </trkpt>
      <trkpt lat="45.74384" lon="4.65285">
        <ele>469</ele>
        <time>2012-08-11T06:13:58Z</time>
      </trkpt>
      <trkpt lat="45.74397" lon="4.65264">
        <ele>471</ele>
        <time>2012-08-11T06:14:11Z</time>
      </trkpt>
      <trkpt lat="45.744" lon="4.65252">
        <ele>471</ele>
        <time>2012-08-11T06:14:19Z</time>
      </trkpt>
      <trkpt lat="45.74405" lon="4.65241">
        <ele>473</ele>
        <time>2012-08-11T06:14:27Z</time>
      </trkpt>
      <trkpt lat="45.74405" lon="4.65241">
        <ele>473</ele>
        <time>2012-08-11T06:14:29Z</time>
      </trkpt>
      <trkpt lat="45.74405" lon="4.65241">
        <ele>473</ele>
        <time>2012-08-11T06:14:36Z</time>
      </trkpt>
      <trkpt lat="45.7442" lon="4.65259">
        <ele>477</ele>
        <time>2012-08-11T06:14:40Z</time>
      </trkpt>
      <trkpt lat="45.74426" lon="4.65267">
        <ele>479</ele>
        <time>2012-08-11T06:14:54Z</time>
      </trkpt>
      <trkpt lat="45.74426" lon="4.65267">
        <ele>479</ele>
        <time>2012-08-11T06:14:56Z</time>
      </trkpt>
      <trkpt lat="45.74446" lon="4.65298">
        <ele>481</ele>
        <time>2012-08-11T06:15:06Z</time>
      </trkpt>
      <trkpt lat="45.74447" lon="4.653">
        <ele>481</ele>
        <time>2012-08-11T06:15:08Z</time>
      </trkpt>
      <trkpt lat="45.74454" lon="4.65332">
        <ele>481</ele>
        <time>2012-08-11T06:15:19Z</time>
      </trkpt>
      <trkpt lat="45.74454" lon="4.6536">
        <ele>482</ele>
        <time>2012-08-11T06:15:30Z</time>
      </trkpt>
      <trkpt lat="45.74452" lon="4.6538">
        <ele>482</ele>
        <time>2012-08-11T06:15:36Z</time>
      </trkpt>
      <trkpt lat="45.74453" lon="4.65393">
        <ele>483</ele>
        <time>2012-08-11T06:15:40Z</time>
      </trkpt>
      <trkpt lat="45.74467" lon="4.65418">
        <ele>485</ele>
        <time>2012-08-11T06:15:51Z</time>
      </trkpt>
      <trkpt lat="45.74478" lon="4.65437">
        <ele>486</ele>
        <time>2012-08-11T06:16:01Z</time>
      </trkpt>
      <trkpt lat="45.74493" lon="4.65465">
        <ele>486</ele>
        <time>2012-08-11T06:16:14Z</time>
      </trkpt>
      <trkpt lat="45.74498" lon="4.65472">
        <ele>486</ele>
        <time>2012-08-11T06:16:27Z</time>
      </trkpt>
      <trkpt lat="45.74498" lon="4.65472">
        <ele>486</ele>
        <time>2012-08-11T06:17:11Z</time>
      </trkpt>
      <trkpt lat="45.74517" lon="4.65464">
        <ele>489</ele>
        <time>2012-08-11T06:17:21Z</time>
      </trkpt>
      <trkpt lat="45.74526" lon="4.6545">
        <ele>489</ele>
        <time>2012-08-11T06:17:28Z</time>
      </trkpt>
      <trkpt lat="45.7453" lon="4.65441">
        <ele>489</ele>
        <time>2012-08-11T06:17:37Z</time>
      </trkpt>
      <trkpt lat="45.7454" lon="4.65424">
        <ele>489</ele>
        <time>2012-08-11T06:17:44Z</time>
      </trkpt>
      <trkpt lat="45.7456" lon="4.65391">
        <ele>491</ele>
        <time>2012-08-11T06:17:56Z</time>
      </trkpt>
      <trkpt lat="45.74581" lon="4.65357">
        <ele>491</ele>
        <time>2012-08-11T06:18:08Z</time>
      </trkpt>
      <trkpt lat="45.74598" lon="4.65333">
        <ele>492</ele>
        <time>2012-08-11T06:18:18Z</time>
      </trkpt>
      <trkpt lat="45.74603" lon="4.65281">
        <ele>492</ele>
        <time>2012-08-11T06:18:30Z</time>
      </trkpt>
      <trkpt lat="45.74609" lon="4.6524">
        <ele>497</ele>
        <time>2012-08-11T06:18:42Z</time>
      </trkpt>
      <trkpt lat="45.74613" lon="4.65202">
        <ele>498</ele>
        <time>2012-08-11T06:18:55Z</time>
      </trkpt>
      <trkpt lat="45.74615" lon="4.65174">
        <ele>499</ele>
        <time>2012-08-11T06:19:07Z</time>
      </trkpt>
      <trkpt lat="45.74617" lon="4.65151">
        <ele>504</ele>
        <time>2012-08-11T06:19:19Z</time>
      </trkpt>
      <trkpt lat="45.7462" lon="4.65125">
        <ele>504</ele>
        <time>2012-08-11T06:19:32Z</time>
      </trkpt>
      <trkpt lat="45.74622" lon="4.65097">
        <ele>505</ele>
        <time>2012-08-11T06:19:44Z</time>
      </trkpt>
      <trkpt lat="45.74625" lon="4.65065">
        <ele>509</ele>
        <time>2012-08-11T06:19:57Z</time>
      </trkpt>
      <trkpt lat="45.74627" lon="4.65029">
        <ele>509</ele>
        <time>2012-08-11T06:20:10Z</time>
      </trkpt>
      <trkpt lat="45.74631" lon="4.65002">
        <ele>510</ele>
        <time>2012-08-11T06:20:21Z</time>
      </trkpt>
      <trkpt lat="45.74639" lon="4.64973">
        <ele>513</ele>
        <time>2012-08-11T06:20:33Z</time>
      </trkpt>
      <trkpt lat="45.74648" lon="4.64943">
        <ele>515</ele>
        <time>2012-08-11T06:20:45Z</time>
      </trkpt>
      <trkpt lat="45.74659" lon="4.64906">
        <ele>519</ele>
        <time>2012-08-11T06:20:59Z</time>
      </trkpt>
      <trkpt lat="45.74665" lon="4.64882">
        <ele>520</ele>
        <time>2012-08-11T06:21:09Z</time>
      </trkpt>
      <trkpt lat="45.7467" lon="4.64861">
        <ele>520</ele>
        <time>2012-08-11T06:21:18Z</time>
      </trkpt>
      <trkpt lat="45.74673" lon="4.64832">
        <ele>525</ele>
        <time>2012-08-11T06:21:27Z</time>
      </trkpt>
      <trkpt lat="45.74671" lon="4.64821">
        <ele>526</ele>
        <time>2012-08-11T06:21:31Z</time>
      </trkpt>
      <trkpt lat="45.74657" lon="4.64804">
        <ele>529</ele>
        <time>2012-08-11T06:21:43Z</time>
      </trkpt>
      <trkpt lat="45.7464" lon="4.64785">
        <ele>531</ele>
        <time>2012-08-11T06:21:55Z</time>
      </trkpt>
      <trkpt lat="45.74637" lon="4.64782">
        <ele>531</ele>
        <time>2012-08-11T06:21:57Z</time>
      </trkpt>
      <trkpt lat="45.7462" lon="4.64764">
        <ele>532</ele>
        <time>2012-08-11T06:22:10Z</time>
      </trkpt>
      <trkpt lat="45.74611" lon="4.64753">
        <ele>532</ele>
        <time>2012-08-11T06:22:20Z</time>
      </trkpt>
      <trkpt lat="45.74596" lon="4.64737">
        <ele>540</ele>
        <time>2012-08-11T06:22:31Z</time>
      </trkpt>
      <trkpt lat="45.74579" lon="4.64723">
        <ele>540</ele>
        <time>2012-08-11T06:22:43Z</time>
      </trkpt>
      <trkpt lat="45.74576" lon="4.64721">
        <ele>540</ele>
        <time>2012-08-11T06:22:49Z</time>
      </trkpt>
      <trkpt lat="45.74565" lon="4.64712">
        <ele>541</ele>
        <time>2012-08-11T06:22:55Z</time>
      </trkpt>
      <trkpt lat="45.74555" lon="4.64699">
        <ele>542</ele>
        <time>2012-08-11T06:23:07Z</time>
      </trkpt>
      <trkpt lat="45.74547" lon="4.64676">
        <ele>543</ele>
        <time>2012-08-11T06:23:18Z</time>
      </trkpt>
      <trkpt lat="45.74539" lon="4.64655">
        <ele>550</ele>
        <time>2012-08-11T06:23:29Z</time>
      </trkpt>
      <trkpt lat="45.74529" lon="4.64629">
        <ele>550</ele>
        <time>2012-08-11T06:23:41Z</time>
      </trkpt>
      <trkpt lat="45.74521" lon="4.64597">
        <ele>551</ele>
        <time>2012-08-11T06:23:52Z</time>
      </trkpt>
      <trkpt lat="45.74512" lon="4.64566">
        <ele>557</ele>
        <time>2012-08-11T06:24:02Z</time>
      </trkpt>
      <trkpt lat="45.74503" lon="4.64525">
        <ele>560</ele>
        <time>2012-08-11T06:24:14Z</time>
      </trkpt>
      <trkpt lat="45.74501" lon="4.64486">
        <ele>564</ele>
        <time>2012-08-11T06:24:26Z</time>
      </trkpt>
      <trkpt lat="45.74496" lon="4.64458">
        <ele>555</ele>
        <time>2012-08-11T06:24:36Z</time>
      </trkpt>
      <trkpt lat="45.74496" lon="4.64456">
        <ele>555</ele>
        <time>2012-08-11T06:24:37Z</time>
      </trkpt>
      <trkpt lat="45.74495" lon="4.64431">
        <ele>559</ele>
        <time>2012-08-11T06:24:47Z</time>
      </trkpt>
      <trkpt lat="45.74493" lon="4.64406">
        <ele>562</ele>
        <time>2012-08-11T06:24:57Z</time>
      </trkpt>
      <trkpt lat="45.74493" lon="4.64391">
        <ele>560</ele>
        <time>2012-08-11T06:25:03Z</time>
      </trkpt>
      <trkpt lat="45.74495" lon="4.64385">
        <ele>559</ele>
        <time>2012-08-11T06:25:12Z</time>
      </trkpt>
      <trkpt lat="45.74495" lon="4.64385">
        <ele>559</ele>
        <time>2012-08-11T06:25:14Z</time>
      </trkpt>
      <trkpt lat="45.74493" lon="4.64385">
        <ele>559</ele>
        <time>2012-08-11T06:25:19Z</time>
      </trkpt>
      <trkpt lat="45.74492" lon="4.64379">
        <ele>559</ele>
        <time>2012-08-11T06:25:29Z</time>
      </trkpt>
      <trkpt lat="45.74492" lon="4.64379">
        <ele>559</ele>
        <time>2012-08-11T06:26:27Z</time>
      </trkpt>
      <trkpt lat="45.74503" lon="4.64384">
        <ele>573</ele>
        <time>2012-08-11T06:26:34Z</time>
      </trkpt>
      <trkpt lat="45.74519" lon="4.64408">
        <ele>572</ele>
        <time>2012-08-11T06:26:46Z</time>
      </trkpt>
      <trkpt lat="45.74528" lon="4.64431">
        <ele>570</ele>
        <time>2012-08-11T06:26:55Z</time>
      </trkpt>
      <trkpt lat="45.74543" lon="4.64451">
        <ele>571</ele>
        <time>2012-08-11T06:27:04Z</time>
      </trkpt>
      <trkpt lat="45.74563" lon="4.64472">
        <ele>573</ele>
        <time>2012-08-11T06:27:13Z</time>
      </trkpt>
      <trkpt lat="45.74591" lon="4.64489">
        <ele>579</ele>
        <time>2012-08-11T06:27:24Z</time>
      </trkpt>
      <trkpt lat="45.74605" lon="4.6449">
        <ele>581</ele>
        <time>2012-08-11T06:27:32Z</time>
      </trkpt>
      <trkpt lat="45.74623" lon="4.64486">
        <ele>583</ele>
        <time>2012-08-11T06:27:44Z</time>
      </trkpt>
      <trkpt lat="45.74641" lon="4.64485">
        <ele>584</ele>
        <time>2012-08-11T06:27:55Z</time>
      </trkpt>
      <trkpt lat="45.7466" lon="4.64481">
        <ele>585</ele>
        <time>2012-08-11T06:28:08Z</time>
      </trkpt>
      <trkpt lat="45.74674" lon="4.64464">
        <ele>590</ele>
        <time>2012-08-11T06:28:19Z</time>
      </trkpt>
      <trkpt lat="45.74693" lon="4.64441">
        <ele>591</ele>
        <time>2012-08-11T06:28:31Z</time>
      </trkpt>
      <trkpt lat="45.74707" lon="4.64418">
        <ele>592</ele>
        <time>2012-08-11T06:28:43Z</time>
      </trkpt>
      <trkpt lat="45.74716" lon="4.64406">
        <ele>598</ele>
        <time>2012-08-11T06:28:53Z</time>
      </trkpt>
      <trkpt lat="45.74731" lon="4.64389">
        <ele>599</ele>
        <time>2012-08-11T06:29:05Z</time>
      </trkpt>
      <trkpt lat="45.74746" lon="4.64367">
        <ele>600</ele>
        <time>2012-08-11T06:29:17Z</time>
      </trkpt>
      <trkpt lat="45.7476" lon="4.6435">
        <ele>601</ele>
        <time>2012-08-11T06:29:28Z</time>
      </trkpt>
      <trkpt lat="45.74778" lon="4.64329">
        <ele>607</ele>
        <time>2012-08-11T06:29:42Z</time>
      </trkpt>
      <trkpt lat="45.74792" lon="4.64309">
        <ele>608</ele>
        <time>2012-08-11T06:29:52Z</time>
      </trkpt>
      <trkpt lat="45.74803" lon="4.64289">
        <ele>609</ele>
        <time>2012-08-11T06:30:01Z</time>
      </trkpt>
      <trkpt lat="45.74806" lon="4.64282">
        <ele>609</ele>
        <time>2012-08-11T06:30:10Z</time>
      </trkpt>
      <trkpt lat="45.7482" lon="4.64266">
        <ele>611</ele>
        <time>2012-08-11T06:30:19Z</time>
      </trkpt>
      <trkpt lat="45.74835" lon="4.6425">
        <ele>613</ele>
        <time>2012-08-11T06:30:30Z</time>
      </trkpt>
      <trkpt lat="45.7484" lon="4.64243">
        <ele>614</ele>
        <time>2012-08-11T06:30:34Z</time>
      </trkpt>
      <trkpt lat="45.74852" lon="4.64223">
        <ele>615</ele>
        <time>2012-08-11T06:30:44Z</time>
      </trkpt>
      <trkpt lat="45.74857" lon="4.64215">
        <ele>616</ele>
        <time>2012-08-11T06:30:52Z</time>
      </trkpt>
      <trkpt lat="45.74857" lon="4.64213">
        <ele>616</ele>
        <time>2012-08-11T06:31:20Z</time>
      </trkpt>
      <trkpt lat="45.74859" lon="4.6421">
        <ele>616</ele>
        <time>2012-08-11T06:31:54Z</time>
      </trkpt>
      <trkpt lat="45.74876" lon="4.64184">
        <ele>617</ele>
        <time>2012-08-11T06:32:07Z</time>
      </trkpt>
      <trkpt lat="45.7488" lon="4.64178">
        <ele>617</ele>
        <time>2012-08-11T06:32:11Z</time>
      </trkpt>
      <trkpt lat="45.74893" lon="4.64156">
        <ele>622</ele>
        <time>2012-08-11T06:32:22Z</time>
      </trkpt>
      <trkpt lat="45.74906" lon="4.64131">
        <ele>623</ele>
        <time>2012-08-11T06:32:35Z</time>
      </trkpt>
      <trkpt lat="45.74916" lon="4.64116">
        <ele>624</ele>
        <time>2012-08-11T06:32:45Z</time>
      </trkpt>
      <trkpt lat="45.74928" lon="4.64094">
        <ele>624</ele>
        <time>2012-08-11T06:32:56Z</time>
      </trkpt>
      <trkpt lat="45.74934" lon="4.64085">
        <ele>624</ele>
        <time>2012-08-11T06:33:02Z</time>
      </trkpt>
      <trkpt lat="45.74939" lon="4.6408">
        <ele>628</ele>
        <time>2012-08-11T06:33:06Z</time>
      </trkpt>
      <trkpt lat="45.7495" lon="4.64054">
        <ele>630</ele>
        <time>2012-08-11T06:33:19Z</time>
      </trkpt>
      <trkpt lat="45.74958" lon="4.64038">
        <ele>631</ele>
        <time>2012-08-11T06:33:28Z</time>
      </trkpt>
      <trkpt lat="45.74972" lon="4.64016">
        <ele>633</ele>
        <time>2012-08-11T06:33:40Z</time>
      </trkpt>
      <trkpt lat="45.74988" lon="4.63993">
        <ele>638</ele>
        <time>2012-08-11T06:33:52Z</time>
      </trkpt>
      <trkpt lat="45.75" lon="4.63977">
        <ele>642</ele>
        <time>2012-08-11T06:34:02Z</time>
      </trkpt>
      <trkpt lat="45.75008" lon="4.6396">
        <ele>644</ele>
        <time>2012-08-11T06:34:11Z</time>
      </trkpt>
      <trkpt lat="45.75018" lon="4.63947">
        <ele>644</ele>
        <time>2012-08-11T06:34:24Z</time>
      </trkpt>
      <trkpt lat="45.75025" lon="4.63939">
        <ele>645</ele>
        <time>2012-08-11T06:34:35Z</time>
      </trkpt>
      <trkpt lat="45.75038" lon="4.63927">
        <ele>646</ele>
        <time>2012-08-11T06:34:46Z</time>
      </trkpt>
      <trkpt lat="45.75045" lon="4.63915">
        <ele>647</ele>
        <time>2012-08-11T06:34:55Z</time>
      </trkpt>
      <trkpt lat="45.75057" lon="4.63906">
        <ele>648</ele>
        <time>2012-08-11T06:35:05Z</time>
      </trkpt>
      <trkpt lat="45.75059" lon="4.63905">
        <ele>648</ele>
        <time>2012-08-11T06:35:06Z</time>
      </trkpt>
      <trkpt lat="45.75073" lon="4.63893">
        <ele>649</ele>
        <time>2012-08-11T06:35:18Z</time>
      </trkpt>
      <trkpt lat="45.75079" lon="4.63889">
        <ele>649</ele>
        <time>2012-08-11T06:35:23Z</time>
      </trkpt>
      <trkpt lat="45.75094" lon="4.63872">
        <ele>652</ele>
        <time>2012-08-11T06:35:35Z</time>
      </trkpt>
      <trkpt lat="45.75107" lon="4.63866">
        <ele>652</ele>
        <time>2012-08-11T06:35:44Z</time>
      </trkpt>
      <trkpt lat="45.7512" lon="4.63854">
        <ele>652</ele>
        <time>2012-08-11T06:35:56Z</time>
      </trkpt>
      <trkpt lat="45.75124" lon="4.63852">
        <ele>652</ele>
        <time>2012-08-11T06:35:59Z</time>
      </trkpt>
      <trkpt lat="45.75127" lon="4.63853">
        <ele>652</ele>
        <time>2012-08-11T06:36:09Z</time>
      </trkpt>
      <trkpt lat="45.75127" lon="4.63853">
        <ele>652</ele>
        <time>2012-08-11T06:36:35Z</time>
      </trkpt>
      <trkpt lat="45.75134" lon="4.63853">
        <ele>652</ele>
        <time>2012-08-11T06:40:12Z</time>
      </trkpt>
      <trkpt lat="45.75136" lon="4.63855">
        <ele>652</ele>
        <time>2012-08-11T06:40:27Z</time>
      </trkpt>
      <trkpt lat="45.75136" lon="4.63854">
        <ele>652</ele>
        <time>2012-08-11T06:41:05Z</time>
      </trkpt>
      <trkpt lat="45.75141" lon="4.63851">
        <ele>652</ele>
        <time>2012-08-11T06:41:09Z</time>
      </trkpt>
      <trkpt lat="45.75154" lon="4.63849">
        <ele>652</ele>
        <time>2012-08-11T06:41:15Z</time>
      </trkpt>
      <trkpt lat="45.7518" lon="4.63838">
        <ele>652</ele>
        <time>2012-08-11T06:41:27Z</time>
      </trkpt>
      <trkpt lat="45.75206" lon="4.63821">
        <ele>652</ele>
        <time>2012-08-11T06:41:37Z</time>
      </trkpt>
      <trkpt lat="45.75223" lon="4.63805">
        <ele>652</ele>
        <time>2012-08-11T06:41:45Z</time>
      </trkpt>
      <trkpt lat="45.75236" lon="4.63782">
        <ele>653</ele>
        <time>2012-08-11T06:41:54Z</time>
      </trkpt>
      <trkpt lat="45.75251" lon="4.63748">
        <ele>657</ele>
        <time>2012-08-11T06:42:04Z</time>
      </trkpt>
      <trkpt lat="45.75266" lon="4.63709">
        <ele>661</ele>
        <time>2012-08-11T06:42:14Z</time>
      </trkpt>
      <trkpt lat="45.75267" lon="4.63677">
        <ele>662</ele>
        <time>2012-08-11T06:42:23Z</time>
      </trkpt>
      <trkpt lat="45.75266" lon="4.63654">
        <ele>666</ele>
        <time>2012-08-11T06:42:33Z</time>
      </trkpt>
      <trkpt lat="45.75266" lon="4.6363">
        <ele>669</ele>
        <time>2012-08-11T06:42:44Z</time>
      </trkpt>
      <trkpt lat="45.75265" lon="4.63626">
        <ele>669</ele>
        <time>2012-08-11T06:42:46Z</time>
      </trkpt>
      <trkpt lat="45.75264" lon="4.63618">
        <ele>670</ele>
        <time>2012-08-11T06:42:50Z</time>
      </trkpt>
      <trkpt lat="45.75263" lon="4.63599">
        <ele>670</ele>
        <time>2012-08-11T06:42:59Z</time>
      </trkpt>
      <trkpt lat="45.75258" lon="4.63576">
        <ele>673</ele>
        <time>2012-08-11T06:43:10Z</time>
      </trkpt>
      <trkpt lat="45.75256" lon="4.63553">
        <ele>678</ele>
        <time>2012-08-11T06:43:21Z</time>
      </trkpt>
      <trkpt lat="45.75255" lon="4.63548">
        <ele>678</ele>
        <time>2012-08-11T06:43:23Z</time>
      </trkpt>
      <trkpt lat="45.75253" lon="4.63539">
        <ele>679</ele>
        <time>2012-08-11T06:43:27Z</time>
      </trkpt>
      <trkpt lat="45.75251" lon="4.63519">
        <ele>680</ele>
        <time>2012-08-11T06:43:39Z</time>
      </trkpt>
      <trkpt lat="45.75249" lon="4.63499">
        <ele>678</ele>
        <time>2012-08-11T06:43:50Z</time>
      </trkpt>
      <trkpt lat="45.75249" lon="4.63477">
        <ele>673</ele>
        <time>2012-08-11T06:44:00Z</time>
      </trkpt>
      <trkpt lat="45.75249" lon="4.63459">
        <ele>673</ele>
        <time>2012-08-11T06:44:09Z</time>
      </trkpt>
      <trkpt lat="45.75247" lon="4.63434">
        <ele>676</ele>
        <time>2012-08-11T06:44:19Z</time>
      </trkpt>
      <trkpt lat="45.75254" lon="4.6341">
        <ele>685</ele>
        <time>2012-08-11T06:44:30Z</time>
      </trkpt>
      <trkpt lat="45.7526" lon="4.6339">
        <ele>688</ele>
        <time>2012-08-11T06:44:40Z</time>
      </trkpt>
      <trkpt lat="45.75268" lon="4.63368">
        <ele>690</ele>
        <time>2012-08-11T06:44:50Z</time>
      </trkpt>
      <trkpt lat="45.75279" lon="4.63346">
        <ele>690</ele>
        <time>2012-08-11T06:45:00Z</time>
      </trkpt>
      <trkpt lat="45.75281" lon="4.63343">
        <ele>690</ele>
        <time>2012-08-11T06:45:03Z</time>
      </trkpt>
      <trkpt lat="45.75289" lon="4.63329">
        <ele>690</ele>
        <time>2012-08-11T06:45:10Z</time>
      </trkpt>
      <trkpt lat="45.75299" lon="4.63306">
        <ele>691</ele>
        <time>2012-08-11T06:45:22Z</time>
      </trkpt>
      <trkpt lat="45.75306" lon="4.63292">
        <ele>691</ele>
        <time>2012-08-11T06:45:29Z</time>
      </trkpt>
      <trkpt lat="45.75318" lon="4.63273">
        <ele>693</ele>
        <time>2012-08-11T06:45:39Z</time>
      </trkpt>
      <trkpt lat="45.75331" lon="4.63244">
        <ele>695</ele>
        <time>2012-08-11T06:45:51Z</time>
      </trkpt>
      <trkpt lat="45.75333" lon="4.6324">
        <ele>694</ele>
        <time>2012-08-11T06:45:54Z</time>
      </trkpt>
      <trkpt lat="45.75346" lon="4.63215">
        <ele>699</ele>
        <time>2012-08-11T06:46:05Z</time>
      </trkpt>
      <trkpt lat="45.7536" lon="4.63194">
        <ele>698</ele>
        <time>2012-08-11T06:46:15Z</time>
      </trkpt>
      <trkpt lat="45.75372" lon="4.63172">
        <ele>699</ele>
        <time>2012-08-11T06:46:25Z</time>
      </trkpt>
      <trkpt lat="45.75386" lon="4.63151">
        <ele>697</ele>
        <time>2012-08-11T06:46:37Z</time>
      </trkpt>
      <trkpt lat="45.75395" lon="4.63128">
        <ele>696</ele>
        <time>2012-08-11T06:46:47Z</time>
      </trkpt>
      <trkpt lat="45.75396" lon="4.63121">
        <ele>696</ele>
        <time>2012-08-11T06:47:02Z</time>
      </trkpt>
      <trkpt lat="45.75396" lon="4.63118">
        <ele>696</ele>
        <time>2012-08-11T06:50:39Z</time>
      </trkpt>
      <trkpt lat="45.75408" lon="4.63095">
        <ele>698</ele>
        <time>2012-08-11T06:50:50Z</time>
      </trkpt>
      <trkpt lat="45.75414" lon="4.63074">
        <ele>696</ele>
        <time>2012-08-11T06:50:59Z</time>
      </trkpt>
      <trkpt lat="45.75424" lon="4.63046">
        <ele>698</ele>
        <time>2012-08-11T06:51:09Z</time>
      </trkpt>
      <trkpt lat="45.75433" lon="4.63018">
        <ele>697</ele>
        <time>2012-08-11T06:51:19Z</time>
      </trkpt>
      <trkpt lat="45.75443" lon="4.62986">
        <ele>695</ele>
        <time>2012-08-11T06:51:29Z</time>
      </trkpt>
      <trkpt lat="45.75458" lon="4.62955">
        <ele>695</ele>
        <time>2012-08-11T06:51:41Z</time>
      </trkpt>
      <trkpt lat="45.75468" lon="4.62929">
        <ele>695</ele>
        <time>2012-08-11T06:51:50Z</time>
      </trkpt>
      <trkpt lat="45.75482" lon="4.62893">
        <ele>693</ele>
        <time>2012-08-11T06:52:01Z</time>
      </trkpt>
      <trkpt lat="45.75493" lon="4.6286">
        <ele>694</ele>
        <time>2012-08-11T06:52:11Z</time>
      </trkpt>
      <trkpt lat="45.75507" lon="4.62851">
        <ele>697</ele>
        <time>2012-08-11T06:52:19Z</time>
      </trkpt>
      <trkpt lat="45.75527" lon="4.62841">
        <ele>698</ele>
        <time>2012-08-11T06:52:26Z</time>
      </trkpt>
      <trkpt lat="45.75562" lon="4.62831">
        <ele>704</ele>
        <time>2012-08-11T06:52:32Z</time>
      </trkpt>
      <trkpt lat="45.75572" lon="4.62829">
        <ele>705</ele>
        <time>2012-08-11T06:52:34Z</time>
      </trkpt>
      <trkpt lat="45.75604" lon="4.6283">
        <ele>716</ele>
        <time>2012-08-11T06:52:44Z</time>
      </trkpt>
      <trkpt lat="45.75627" lon="4.62844">
        <ele>710</ele>
        <time>2012-08-11T06:52:53Z</time>
      </trkpt>
      <trkpt lat="45.75627" lon="4.62844">
        <ele>710</ele>
        <time>2012-08-11T06:53:08Z</time>
      </trkpt>
      <trkpt lat="45.75627" lon="4.62844">
        <ele>710</ele>
        <time>2012-08-11T06:56:02Z</time>
      </trkpt>
      <trkpt lat="45.75656" lon="4.62864">
        <ele>711</ele>
        <time>2012-08-11T06:56:11Z</time>
      </trkpt>
      <trkpt lat="45.75677" lon="4.62878">
        <ele>719</ele>
        <time>2012-08-11T06:56:20Z</time>
      </trkpt>
      <trkpt lat="45.75685" lon="4.62883">
        <ele>719</ele>
        <time>2012-08-11T06:56:29Z</time>
      </trkpt>
      <trkpt lat="45.7572" lon="4.62907">
        <ele>721</ele>
        <time>2012-08-11T06:56:42Z</time>
      </trkpt>
      <trkpt lat="45.7576" lon="4.6293">
        <ele>717</ele>
        <time>2012-08-11T06:56:52Z</time>
      </trkpt>
      <trkpt lat="45.75774" lon="4.62911">
        <ele>734</ele>
        <time>2012-08-11T06:57:01Z</time>
      </trkpt>
      <trkpt lat="45.7581" lon="4.62947">
        <ele>718</ele>
        <time>2012-08-11T06:58:07Z</time>
      </trkpt>
      <trkpt lat="45.75817" lon="4.62949">
        <ele>718</ele>
        <time>2012-08-11T06:58:10Z</time>
      </trkpt>
      <trkpt lat="45.75844" lon="4.62969">
        <ele>724</ele>
        <time>2012-08-11T06:58:17Z</time>
      </trkpt>
      <trkpt lat="45.7585" lon="4.62975">
        <ele>723</ele>
        <time>2012-08-11T06:58:20Z</time>
      </trkpt>
      <trkpt lat="45.7588" lon="4.62997">
        <ele>726</ele>
        <time>2012-08-11T06:58:30Z</time>
      </trkpt>
      <trkpt lat="45.75903" lon="4.63015">
        <ele>716</ele>
        <time>2012-08-11T06:58:41Z</time>
      </trkpt>
      <trkpt lat="45.75924" lon="4.63031">
        <ele>722</ele>
        <time>2012-08-11T06:58:51Z</time>
      </trkpt>
      <trkpt lat="45.75952" lon="4.63057">
        <ele>719</ele>
        <time>2012-08-11T06:59:01Z</time>
      </trkpt>
      <trkpt lat="45.75964" lon="4.63068">
        <ele>719</ele>
        <time>2012-08-11T06:59:04Z</time>
      </trkpt>
      <trkpt lat="45.75993" lon="4.6309">
        <ele>714</ele>
        <time>2012-08-11T06:59:08Z</time>
      </trkpt>
      <trkpt lat="45.76005" lon="4.63094">
        <ele>712</ele>
        <time>2012-08-11T06:59:10Z</time>
      </trkpt>
      <trkpt lat="45.76043" lon="4.63088">
        <ele>706</ele>
        <time>2012-08-11T06:59:16Z</time>
      </trkpt>
      <trkpt lat="45.76065" lon="4.6306">
        <ele>712</ele>
        <time>2012-08-11T06:59:22Z</time>
      </trkpt>
      <trkpt lat="45.76067" lon="4.63055">
        <ele>712</ele>
        <time>2012-08-11T06:59:23Z</time>
      </trkpt>
      <trkpt lat="45.76081" lon="4.63018">
        <ele>713</ele>
        <time>2012-08-11T06:59:27Z</time>
      </trkpt>
      <trkpt lat="45.76093" lon="4.62989">
        <ele>711</ele>
        <time>2012-08-11T06:59:31Z</time>
      </trkpt>
      <trkpt lat="45.76097" lon="4.62968">
        <ele>712</ele>
        <time>2012-08-11T06:59:33Z</time>
      </trkpt>
      <trkpt lat="45.76104" lon="4.62923">
        <ele>714</ele>
        <time>2012-08-11T06:59:39Z</time>
      </trkpt>
      <trkpt lat="45.76106" lon="4.62914">
        <ele>721</ele>
        <time>2012-08-11T06:59:42Z</time>
      </trkpt>
      <trkpt lat="45.76106" lon="4.62914">
        <ele>721</ele>
        <time>2012-08-11T06:59:44Z</time>
      </trkpt>
      <trkpt lat="45.76114" lon="4.62893">
        <ele>723</ele>
        <time>2012-08-11T06:59:52Z</time>
      </trkpt>
      <trkpt lat="45.76119" lon="4.62882">
        <ele>724</ele>
        <time>2012-08-11T06:59:54Z</time>
      </trkpt>
      <trkpt lat="45.76137" lon="4.62847">
        <ele>727</ele>
        <time>2012-08-11T07:00:06Z</time>
      </trkpt>
      <trkpt lat="45.76172" lon="4.62846">
        <ele>728</ele>
        <time>2012-08-11T07:00:16Z</time>
      </trkpt>
      <trkpt lat="45.76176" lon="4.62848">
        <ele>728</ele>
        <time>2012-08-11T07:00:26Z</time>
      </trkpt>
      <trkpt lat="45.76176" lon="4.62848">
        <ele>728</ele>
        <time>2012-08-11T07:01:27Z</time>
      </trkpt>
      <trkpt lat="45.76183" lon="4.62853">
        <ele>727</ele>
        <time>2012-08-11T07:01:37Z</time>
      </trkpt>
      <trkpt lat="45.76217" lon="4.62867">
        <ele>726</ele>
        <time>2012-08-11T07:01:42Z</time>
      </trkpt>
      <trkpt lat="45.76233" lon="4.62868">
        <ele>726</ele>
        <time>2012-08-11T07:01:49Z</time>
      </trkpt>
      <trkpt lat="45.76241" lon="4.62868">
        <ele>726</ele>
        <time>2012-08-11T07:02:00Z</time>
      </trkpt>
      <trkpt lat="45.76241" lon="4.62868">
        <ele>726</ele>
        <time>2012-08-11T07:02:05Z</time>
      </trkpt>
      <trkpt lat="45.76275" lon="4.62877">
        <ele>724</ele>
        <time>2012-08-11T07:02:13Z</time>
      </trkpt>
      <trkpt lat="45.76275" lon="4.62877">
        <ele>724</ele>
        <time>2012-08-11T07:02:17Z</time>
      </trkpt>
      <trkpt lat="45.76278" lon="4.62885">
        <ele>723</ele>
        <time>2012-08-11T07:02:27Z</time>
      </trkpt>
      <trkpt lat="45.76278" lon="4.62885">
        <ele>723</ele>
        <time>2012-08-11T07:02:33Z</time>
      </trkpt>
      <trkpt lat="45.76288" lon="4.62907">
        <ele>723</ele>
        <time>2012-08-11T07:02:42Z</time>
      </trkpt>
      <trkpt lat="45.76289" lon="4.6291">
        <ele>723</ele>
        <time>2012-08-11T07:02:43Z</time>
      </trkpt>
      <trkpt lat="45.76292" lon="4.6292">
        <ele>723</ele>
        <time>2012-08-11T07:02:51Z</time>
      </trkpt>
      <trkpt lat="45.76292" lon="4.6292">
        <ele>723</ele>
        <time>2012-08-11T07:03:00Z</time>
      </trkpt>
      <trkpt lat="45.76287" lon="4.62906">
        <ele>723</ele>
        <time>2012-08-11T07:03:05Z</time>
      </trkpt>
      <trkpt lat="45.76286" lon="4.62903">
        <ele>723</ele>
        <time>2012-08-11T07:03:09Z</time>
      </trkpt>
      <trkpt lat="45.76286" lon="4.62904">
        <ele>723</ele>
        <time>2012-08-11T07:03:13Z</time>
      </trkpt>
      <trkpt lat="45.7629" lon="4.62914">
        <ele>723</ele>
        <time>2012-08-11T07:03:17Z</time>
      </trkpt>
      <trkpt lat="45.76307" lon="4.62938">
        <ele>723</ele>
        <time>2012-08-11T07:03:24Z</time>
      </trkpt>
      <trkpt lat="45.7632" lon="4.62948">
        <ele>723</ele>
        <time>2012-08-11T07:03:31Z</time>
      </trkpt>
      <trkpt lat="45.76332" lon="4.62961">
        <ele>724</ele>
        <time>2012-08-11T07:03:40Z</time>
      </trkpt>
      <trkpt lat="45.76361" lon="4.62983">
        <ele>727</ele>
        <time>2012-08-11T07:03:49Z</time>
      </trkpt>
      <trkpt lat="45.76381" lon="4.63001">
        <ele>730</ele>
        <time>2012-08-11T07:03:57Z</time>
      </trkpt>
      <trkpt lat="45.76394" lon="4.63016">
        <ele>730</ele>
        <time>2012-08-11T07:04:07Z</time>
      </trkpt>
      <trkpt lat="45.7641" lon="4.63032">
        <ele>731</ele>
        <time>2012-08-11T07:04:16Z</time>
      </trkpt>
      <trkpt lat="45.76431" lon="4.63053">
        <ele>732</ele>
        <time>2012-08-11T07:04:26Z</time>
      </trkpt>
      <trkpt lat="45.76438" lon="4.63061">
        <ele>732</ele>
        <time>2012-08-11T07:04:31Z</time>
      </trkpt>
      <trkpt lat="45.76449" lon="4.63064">
        <ele>732</ele>
        <time>2012-08-11T07:04:36Z</time>
      </trkpt>
      <trkpt lat="45.76475" lon="4.63069">
        <ele>731</ele>
        <time>2012-08-11T07:04:46Z</time>
      </trkpt>
      <trkpt lat="45.76487" lon="4.63069">
        <ele>731</ele>
        <time>2012-08-11T07:04:50Z</time>
      </trkpt>
      <trkpt lat="45.76503" lon="4.63069">
        <ele>729</ele>
        <time>2012-08-11T07:04:56Z</time>
      </trkpt>
      <trkpt lat="45.76539" lon="4.63068">
        <ele>729</ele>
        <time>2012-08-11T07:05:05Z</time>
      </trkpt>
      <trkpt lat="45.76561" lon="4.63063">
        <ele>728</ele>
        <time>2012-08-11T07:05:13Z</time>
      </trkpt>
      <trkpt lat="45.76584" lon="4.63058">
        <ele>728</ele>
        <time>2012-08-11T07:05:22Z</time>
      </trkpt>
      <trkpt lat="45.76584" lon="4.63058">
        <ele>728</ele>
        <time>2012-08-11T07:05:26Z</time>
      </trkpt>
      <trkpt lat="45.76593" lon="4.6305">
        <ele>729</ele>
        <time>2012-08-11T07:05:38Z</time>
      </trkpt>
      <trkpt lat="45.76648" lon="4.63011">
        <ele>731</ele>
        <time>2012-08-11T07:05:50Z</time>
      </trkpt>
      <trkpt lat="45.76659" lon="4.63006">
        <ele>731</ele>
        <time>2012-08-11T07:05:54Z</time>
      </trkpt>
      <trkpt lat="45.7666" lon="4.63006">
        <ele>731</ele>
        <time>2012-08-11T07:06:03Z</time>
      </trkpt>
      <trkpt lat="45.7666" lon="4.63006">
        <ele>731</ele>
        <time>2012-08-11T07:06:09Z</time>
      </trkpt>
      <trkpt lat="45.76697" lon="4.63008">
        <ele>734</ele>
        <time>2012-08-11T07:06:16Z</time>
      </trkpt>
      <trkpt lat="45.76705" lon="4.6303">
        <ele>735</ele>
        <time>2012-08-11T07:06:25Z</time>
      </trkpt>
      <trkpt lat="45.76711" lon="4.63045">
        <ele>735</ele>
        <time>2012-08-11T07:06:29Z</time>
      </trkpt>
      <trkpt lat="45.7672" lon="4.63062">
        <ele>736</ele>
        <time>2012-08-11T07:06:34Z</time>
      </trkpt>
      <trkpt lat="45.76725" lon="4.63072">
        <ele>736</ele>
        <time>2012-08-11T07:06:38Z</time>
      </trkpt>
      <trkpt lat="45.76733" lon="4.63086">
        <ele>736</ele>
        <time>2012-08-11T07:06:45Z</time>
      </trkpt>
      <trkpt lat="45.76742" lon="4.631">
        <ele>736</ele>
        <time>2012-08-11T07:06:54Z</time>
      </trkpt>
      <trkpt lat="45.76758" lon="4.63125">
        <ele>738</ele>
        <time>2012-08-11T07:07:02Z</time>
      </trkpt>
      <trkpt lat="45.76768" lon="4.63141">
        <ele>737</ele>
        <time>2012-08-11T07:07:11Z</time>
      </trkpt>
      <trkpt lat="45.76792" lon="4.6317">
        <ele>733</ele>
        <time>2012-08-11T07:07:20Z</time>
      </trkpt>
      <trkpt lat="45.76809" lon="4.63185">
        <ele>733</ele>
        <time>2012-08-11T07:07:25Z</time>
      </trkpt>
      <trkpt lat="45.76821" lon="4.63203">
        <ele>732</ele>
        <time>2012-08-11T07:07:29Z</time>
      </trkpt>
      <trkpt lat="45.7683" lon="4.63214">
        <ele>732</ele>
        <time>2012-08-11T07:07:33Z</time>
      </trkpt>
      <trkpt lat="45.76847" lon="4.63222">
        <ele>732</ele>
        <time>2012-08-11T07:07:36Z</time>
      </trkpt>
      <trkpt lat="45.76874" lon="4.63229">
        <ele>732</ele>
        <time>2012-08-11T07:07:40Z</time>
      </trkpt>
      <trkpt lat="45.76882" lon="4.63236">
        <ele>731</ele>
        <time>2012-08-11T07:07:42Z</time>
      </trkpt>
      <trkpt lat="45.76903" lon="4.63251">
        <ele>731</ele>
        <time>2012-08-11T07:07:45Z</time>
      </trkpt>
      <trkpt lat="45.76933" lon="4.63264">
        <ele>730</ele>
        <time>2012-08-11T07:07:53Z</time>
      </trkpt>
      <trkpt lat="45.76933" lon="4.63264">
        <ele>730</ele>
        <time>2012-08-11T07:08:16Z</time>
      </trkpt>
      <trkpt lat="45.76961" lon="4.63306">
        <ele>731</ele>
        <time>2012-08-11T07:08:28Z</time>
      </trkpt>
      <trkpt lat="45.7697" lon="4.63323">
        <ele>731</ele>
        <time>2012-08-11T07:08:37Z</time>
      </trkpt>
      <trkpt lat="45.76974" lon="4.63326">
        <ele>732</ele>
        <time>2012-08-11T07:08:39Z</time>
      </trkpt>
      <trkpt lat="45.76985" lon="4.63337">
        <ele>734</ele>
        <time>2012-08-11T07:08:45Z</time>
      </trkpt>
      <trkpt lat="45.76991" lon="4.63348">
        <ele>735</ele>
        <time>2012-08-11T07:08:57Z</time>
      </trkpt>
      <trkpt lat="45.76993" lon="4.63351">
        <ele>735</ele>
        <time>2012-08-11T07:09:00Z</time>
      </trkpt>
      <trkpt lat="45.77005" lon="4.63373">
        <ele>736</ele>
        <time>2012-08-11T07:09:09Z</time>
      </trkpt>
      <trkpt lat="45.77011" lon="4.63385">
        <ele>736</ele>
        <time>2012-08-11T07:09:14Z</time>
      </trkpt>
      <trkpt lat="45.77015" lon="4.63393">
        <ele>736</ele>
        <time>2012-08-11T07:09:18Z</time>
      </trkpt>
      <trkpt lat="45.77022" lon="4.63416">
        <ele>737</ele>
        <time>2012-08-11T07:09:32Z</time>
      </trkpt>
      <trkpt lat="45.77026" lon="4.63426">
        <ele>738</ele>
        <time>2012-08-11T07:09:37Z</time>
      </trkpt>
      <trkpt lat="45.77044" lon="4.6345">
        <ele>737</ele>
        <time>2012-08-11T07:09:47Z</time>
      </trkpt>
      <trkpt lat="45.77049" lon="4.63456">
        <ele>737</ele>
        <time>2012-08-11T07:09:55Z</time>
      </trkpt>
      <trkpt lat="45.77066" lon="4.63445">
        <ele>737</ele>
        <time>2012-08-11T07:10:02Z</time>
      </trkpt>
      <trkpt lat="45.77086" lon="4.63444">
        <ele>731</ele>
        <time>2012-08-11T07:10:07Z</time>
      </trkpt>
      <trkpt lat="45.77113" lon="4.63452">
        <ele>729</ele>
        <time>2012-08-11T07:10:13Z</time>
      </trkpt>
      <trkpt lat="45.77116" lon="4.63458">
        <ele>729</ele>
        <time>2012-08-11T07:10:15Z</time>
      </trkpt>
      <trkpt lat="45.77143" lon="4.63452">
        <ele>727</ele>
        <time>2012-08-11T07:10:25Z</time>
      </trkpt>
      <trkpt lat="45.77153" lon="4.6345">
        <ele>726</ele>
        <time>2012-08-11T07:10:27Z</time>
      </trkpt>
      <trkpt lat="45.77187" lon="4.63467">
        <ele>713</ele>
        <time>2012-08-11T07:10:37Z</time>
      </trkpt>
      <trkpt lat="45.7718" lon="4.63484">
        <ele>715</ele>
        <time>2012-08-11T07:10:43Z</time>
      </trkpt>
      <trkpt lat="45.77172" lon="4.63497">
        <ele>718</ele>
        <time>2012-08-11T07:10:45Z</time>
      </trkpt>
      <trkpt lat="45.77169" lon="4.63508">
        <ele>716</ele>
        <time>2012-08-11T07:10:47Z</time>
      </trkpt>
      <trkpt lat="45.77173" lon="4.63534">
        <ele>709</ele>
        <time>2012-08-11T07:10:53Z</time>
      </trkpt>
      <trkpt lat="45.77174" lon="4.63542">
        <ele>708</ele>
        <time>2012-08-11T07:10:56Z</time>
      </trkpt>
      <trkpt lat="45.77173" lon="4.63548">
        <ele>707</ele>
        <time>2012-08-11T07:10:58Z</time>
      </trkpt>
      <trkpt lat="45.77181" lon="4.63573">
        <ele>707</ele>
        <time>2012-08-11T07:11:05Z</time>
      </trkpt>
      <trkpt lat="45.77186" lon="4.63578">
        <ele>706</ele>
        <time>2012-08-11T07:11:07Z</time>
      </trkpt>
      <trkpt lat="45.77206" lon="4.6359">
        <ele>696</ele>
        <time>2012-08-11T07:11:15Z</time>
      </trkpt>
      <trkpt lat="45.77206" lon="4.63591">
        <ele>696</ele>
        <time>2012-08-11T07:12:20Z</time>
      </trkpt>
      <trkpt lat="45.77204" lon="4.63598">
        <ele>696</ele>
        <time>2012-08-11T07:12:23Z</time>
      </trkpt>
      <trkpt lat="45.77196" lon="4.6361">
        <ele>696</ele>
        <time>2012-08-11T07:12:27Z</time>
      </trkpt>
      <trkpt lat="45.77221" lon="4.63659">
        <ele>690</ele>
        <time>2012-08-11T07:12:34Z</time>
      </trkpt>
      <trkpt lat="45.7722" lon="4.63726">
        <ele>681</ele>
        <time>2012-08-11T07:12:39Z</time>
      </trkpt>
      <trkpt lat="45.7722" lon="4.63726">
        <ele>681</ele>
        <time>2012-08-11T07:12:40Z</time>
      </trkpt>
      <trkpt lat="45.7722" lon="4.63726">
        <ele>681</ele>
        <time>2012-08-11T07:12:53Z</time>
      </trkpt>
      <trkpt lat="45.7722" lon="4.63726">
        <ele>681</ele>
        <time>2012-08-11T07:13:26Z</time>
      </trkpt>
      <trkpt lat="45.77222" lon="4.63702">
        <ele>682</ele>
        <time>2012-08-11T07:13:31Z</time>
      </trkpt>
      <trkpt lat="45.77216" lon="4.63724">
        <ele>681</ele>
        <time>2012-08-11T07:13:39Z</time>
      </trkpt>
      <trkpt lat="45.77201" lon="4.63771">
        <ele>674</ele>
        <time>2012-08-11T07:13:47Z</time>
      </trkpt>
      <trkpt lat="45.77217" lon="4.63795">
        <ele>672</ele>
        <time>2012-08-11T07:13:54Z</time>
      </trkpt>
      <trkpt lat="45.77221" lon="4.63801">
        <ele>671</ele>
        <time>2012-08-11T07:13:55Z</time>
      </trkpt>
      <trkpt lat="45.77231" lon="4.63813">
        <ele>670</ele>
        <time>2012-08-11T07:13:58Z</time>
      </trkpt>
      <trkpt lat="45.77228" lon="4.63825">
        <ele>670</ele>
        <time>2012-08-11T07:14:03Z</time>
      </trkpt>
      <trkpt lat="45.77229" lon="4.63834">
        <ele>664</ele>
        <time>2012-08-11T07:14:07Z</time>
      </trkpt>
      <trkpt lat="45.77226" lon="4.63864">
        <ele>661</ele>
        <time>2012-08-11T07:14:12Z</time>
      </trkpt>
      <trkpt lat="45.77228" lon="4.63887">
        <ele>659</ele>
        <time>2012-08-11T07:14:16Z</time>
      </trkpt>
      <trkpt lat="45.7723" lon="4.63912">
        <ele>658</ele>
        <time>2012-08-11T07:14:24Z</time>
      </trkpt>
      <trkpt lat="45.77233" lon="4.63927">
        <ele>651</ele>
        <time>2012-08-11T07:14:27Z</time>
      </trkpt>
      <trkpt lat="45.77232" lon="4.63963">
        <ele>647</ele>
        <time>2012-08-11T07:14:34Z</time>
      </trkpt>
      <trkpt lat="45.77228" lon="4.63973">
        <ele>646</ele>
        <time>2012-08-11T07:14:39Z</time>
      </trkpt>
      <trkpt lat="45.77224" lon="4.63995">
        <ele>645</ele>
        <time>2012-08-11T07:14:45Z</time>
      </trkpt>
      <trkpt lat="45.77219" lon="4.64019">
        <ele>635</ele>
        <time>2012-08-11T07:14:51Z</time>
      </trkpt>
      <trkpt lat="45.77228" lon="4.64044">
        <ele>634</ele>
        <time>2012-08-11T07:14:55Z</time>
      </trkpt>
      <trkpt lat="45.77237" lon="4.6407">
        <ele>632</ele>
        <time>2012-08-11T07:15:01Z</time>
      </trkpt>
      <trkpt lat="45.77241" lon="4.64078">
        <ele>632</ele>
        <time>2012-08-11T07:15:07Z</time>
      </trkpt>
      <trkpt lat="45.77239" lon="4.64091">
        <ele>626</ele>
        <time>2012-08-11T07:17:24Z</time>
      </trkpt>
      <trkpt lat="45.77237" lon="4.64101">
        <ele>624</ele>
        <time>2012-08-11T07:17:27Z</time>
      </trkpt>
      <trkpt lat="45.77227" lon="4.64122">
        <ele>621</ele>
        <time>2012-08-11T07:17:34Z</time>
      </trkpt>
      <trkpt lat="45.77225" lon="4.64142">
        <ele>619</ele>
        <time>2012-08-11T07:17:40Z</time>
      </trkpt>
      <trkpt lat="45.77225" lon="4.64173">
        <ele>608</ele>
        <time>2012-08-11T07:17:48Z</time>
      </trkpt>
      <trkpt lat="45.77227" lon="4.64186">
        <ele>607</ele>
        <time>2012-08-11T07:18:11Z</time>
      </trkpt>
      <trkpt lat="45.77229" lon="4.6419">
        <ele>607</ele>
        <time>2012-08-11T07:18:22Z</time>
      </trkpt>
      <trkpt lat="45.77236" lon="4.6419">
        <ele>607</ele>
        <time>2012-08-11T07:19:27Z</time>
      </trkpt>
      <trkpt lat="45.77259" lon="4.64199">
        <ele>606</ele>
        <time>2012-08-11T07:19:38Z</time>
      </trkpt>
      <trkpt lat="45.77272" lon="4.64205">
        <ele>605</ele>
        <time>2012-08-11T07:19:44Z</time>
      </trkpt>
      <trkpt lat="45.77307" lon="4.64208">
        <ele>603</ele>
        <time>2012-08-11T07:19:54Z</time>
      </trkpt>
      <trkpt lat="45.77331" lon="4.64192">
        <ele>605</ele>
        <time>2012-08-11T07:20:01Z</time>
      </trkpt>
      <trkpt lat="45.7736" lon="4.64152">
        <ele>608</ele>
        <time>2012-08-11T07:20:10Z</time>
      </trkpt>
      <trkpt lat="45.77377" lon="4.64121">
        <ele>608</ele>
        <time>2012-08-11T07:20:17Z</time>
      </trkpt>
      <trkpt lat="45.77386" lon="4.64095">
        <ele>608</ele>
        <time>2012-08-11T07:20:21Z</time>
      </trkpt>
      <trkpt lat="45.774" lon="4.64061">
        <ele>617</ele>
        <time>2012-08-11T07:20:28Z</time>
      </trkpt>
      <trkpt lat="45.77406" lon="4.64043">
        <ele>620</ele>
        <time>2012-08-11T07:20:31Z</time>
      </trkpt>
      <trkpt lat="45.77421" lon="4.64013">
        <ele>612</ele>
        <time>2012-08-11T07:20:36Z</time>
      </trkpt>
      <trkpt lat="45.77433" lon="4.6399">
        <ele>619</ele>
        <time>2012-08-11T07:20:41Z</time>
      </trkpt>
      <trkpt lat="45.77441" lon="4.63982">
        <ele>619</ele>
        <time>2012-08-11T07:20:43Z</time>
      </trkpt>
      <trkpt lat="45.77471" lon="4.63968">
        <ele>616</ele>
        <time>2012-08-11T07:20:48Z</time>
      </trkpt>
      <trkpt lat="45.77481" lon="4.63966">
        <ele>615</ele>
        <time>2012-08-11T07:20:50Z</time>
      </trkpt>
      <trkpt lat="45.77528" lon="4.63944">
        <ele>606</ele>
        <time>2012-08-11T07:21:00Z</time>
      </trkpt>
      <trkpt lat="45.77556" lon="4.63913">
        <ele>614</ele>
        <time>2012-08-11T07:21:10Z</time>
      </trkpt>
      <trkpt lat="45.77576" lon="4.63885">
        <ele>613</ele>
        <time>2012-08-11T07:21:17Z</time>
      </trkpt>
      <trkpt lat="45.7758" lon="4.63874">
        <ele>614</ele>
        <time>2012-08-11T07:21:20Z</time>
      </trkpt>
      <trkpt lat="45.77586" lon="4.63856">
        <ele>608</ele>
        <time>2012-08-11T07:21:26Z</time>
      </trkpt>
      <trkpt lat="45.77586" lon="4.63854">
        <ele>608</ele>
        <time>2012-08-11T07:21:31Z</time>
      </trkpt>
      <trkpt lat="45.77583" lon="4.6384">
        <ele>612</ele>
        <time>2012-08-11T07:21:34Z</time>
      </trkpt>
      <trkpt lat="45.77577" lon="4.63828">
        <ele>612</ele>
        <time>2012-08-11T07:21:45Z</time>
      </trkpt>
      <trkpt lat="45.77571" lon="4.63811">
        <ele>614</ele>
        <time>2012-08-11T07:21:56Z</time>
      </trkpt>
      <trkpt lat="45.77541" lon="4.638">
        <ele>618</ele>
        <time>2012-08-11T07:22:09Z</time>
      </trkpt>
      <trkpt lat="45.77541" lon="4.638">
        <ele>618</ele>
        <time>2012-08-11T07:22:17Z</time>
      </trkpt>
      <trkpt lat="45.77515" lon="4.63776">
        <ele>621</ele>
        <time>2012-08-11T07:22:31Z</time>
      </trkpt>
      <trkpt lat="45.77513" lon="4.63774">
        <ele>621</ele>
        <time>2012-08-11T07:22:35Z</time>
      </trkpt>
      <trkpt lat="45.77502" lon="4.63763">
        <ele>623</ele>
        <time>2012-08-11T07:22:43Z</time>
      </trkpt>
      <trkpt lat="45.77495" lon="4.63757">
        <ele>630</ele>
        <time>2012-08-11T07:22:52Z</time>
      </trkpt>
      <trkpt lat="45.77486" lon="4.6375">
        <ele>631</ele>
        <time>2012-08-11T07:23:01Z</time>
      </trkpt>
      <trkpt lat="45.77486" lon="4.6375">
        <ele>631</ele>
        <time>2012-08-11T07:23:03Z</time>
      </trkpt>
      <trkpt lat="45.77473" lon="4.63743">
        <ele>630</ele>
        <time>2012-08-11T07:23:13Z</time>
      </trkpt>
      <trkpt lat="45.77473" lon="4.63743">
        <ele>630</ele>
        <time>2012-08-11T07:23:22Z</time>
      </trkpt>
      <trkpt lat="45.77453" lon="4.63746">
        <ele>633</ele>
        <time>2012-08-11T07:23:30Z</time>
      </trkpt>
      <trkpt lat="45.77439" lon="4.63762">
        <ele>638</ele>
        <time>2012-08-11T07:23:42Z</time>
      </trkpt>
      <trkpt lat="45.77432" lon="4.63772">
        <ele>639</ele>
        <time>2012-08-11T07:23:51Z</time>
      </trkpt>
      <trkpt lat="45.77432" lon="4.63772">
        <ele>639</ele>
        <time>2012-08-11T07:24:05Z</time>
      </trkpt>
      <trkpt lat="45.77432" lon="4.63772">
        <ele>639</ele>
        <time>2012-08-11T07:24:08Z</time>
      </trkpt>
      <trkpt lat="45.77399" lon="4.6379">
        <ele>651</ele>
        <time>2012-08-11T07:24:21Z</time>
      </trkpt>
      <trkpt lat="45.77399" lon="4.6379">
        <ele>651</ele>
        <time>2012-08-11T07:24:33Z</time>
      </trkpt>
      <trkpt lat="45.77399" lon="4.6379">
        <ele>651</ele>
        <time>2012-08-11T07:24:53Z</time>
      </trkpt>
      <trkpt lat="45.77351" lon="4.63833">
        <ele>658</ele>
        <time>2012-08-11T07:25:03Z</time>
      </trkpt>
      <trkpt lat="45.77335" lon="4.63838">
        <ele>661</ele>
        <time>2012-08-11T07:25:12Z</time>
      </trkpt>
      <trkpt lat="45.77317" lon="4.63838">
        <ele>662</ele>
        <time>2012-08-11T07:25:22Z</time>
      </trkpt>
      <trkpt lat="45.77305" lon="4.63829">
        <ele>666</ele>
        <time>2012-08-11T07:25:31Z</time>
      </trkpt>
      <trkpt lat="45.77285" lon="4.63816">
        <ele>667</ele>
        <time>2012-08-11T07:25:41Z</time>
      </trkpt>
      <trkpt lat="45.77264" lon="4.63805">
        <ele>668</ele>
        <time>2012-08-11T07:25:51Z</time>
      </trkpt>
      <trkpt lat="45.77264" lon="4.63805">
        <ele>668</ele>
        <time>2012-08-11T07:25:54Z</time>
      </trkpt>
      <trkpt lat="45.77252" lon="4.63792">
        <ele>669</ele>
        <time>2012-08-11T07:25:59Z</time>
      </trkpt>
      <trkpt lat="45.7725" lon="4.63787">
        <ele>672</ele>
        <time>2012-08-11T07:26:10Z</time>
      </trkpt>
      <trkpt lat="45.7725" lon="4.63787">
        <ele>672</ele>
        <time>2012-08-11T07:26:18Z</time>
      </trkpt>
      <trkpt lat="45.7725" lon="4.63787">
        <ele>672</ele>
        <time>2012-08-11T07:26:20Z</time>
      </trkpt>
      <trkpt lat="45.77236" lon="4.63746">
        <ele>678</ele>
        <time>2012-08-11T07:26:28Z</time>
      </trkpt>
      <trkpt lat="45.77236" lon="4.63746">
        <ele>678</ele>
        <time>2012-08-11T07:26:37Z</time>
      </trkpt>
      <trkpt lat="45.77236" lon="4.63746">
        <ele>678</ele>
        <time>2012-08-11T07:26:53Z</time>
      </trkpt>
      <trkpt lat="45.77195" lon="4.63716">
        <ele>683</ele>
        <time>2012-08-11T07:26:57Z</time>
      </trkpt>
      <trkpt lat="45.77189" lon="4.63714">
        <ele>683</ele>
        <time>2012-08-11T07:27:10Z</time>
      </trkpt>
      <trkpt lat="45.77189" lon="4.63714">
        <ele>683</ele>
        <time>2012-08-11T07:27:21Z</time>
      </trkpt>
      <trkpt lat="45.77138" lon="4.637">
        <ele>693</ele>
        <time>2012-08-11T07:27:35Z</time>
      </trkpt>
      <trkpt lat="45.77138" lon="4.637">
        <ele>693</ele>
        <time>2012-08-11T07:27:45Z</time>
      </trkpt>
      <trkpt lat="45.7712" lon="4.63699">
        <ele>695</ele>
        <time>2012-08-11T07:27:55Z</time>
      </trkpt>
      <trkpt lat="45.7712" lon="4.63699">
        <ele>695</ele>
        <time>2012-08-11T07:28:04Z</time>
      </trkpt>
      <trkpt lat="45.7712" lon="4.63699">
        <ele>695</ele>
        <time>2012-08-11T07:28:06Z</time>
      </trkpt>
      <trkpt lat="45.7712" lon="4.63699">
        <ele>695</ele>
        <time>2012-08-11T07:28:15Z</time>
      </trkpt>
      <trkpt lat="45.77078" lon="4.63682">
        <ele>706</ele>
        <time>2012-08-11T07:28:25Z</time>
      </trkpt>
      <trkpt lat="45.77064" lon="4.63682">
        <ele>706</ele>
        <time>2012-08-11T07:28:33Z</time>
      </trkpt>
      <trkpt lat="45.77055" lon="4.63684">
        <ele>706</ele>
        <time>2012-08-11T07:28:38Z</time>
      </trkpt>
      <trkpt lat="45.7704" lon="4.63685">
        <ele>706</ele>
        <time>2012-08-11T07:28:50Z</time>
      </trkpt>
      <trkpt lat="45.77036" lon="4.63685">
        <ele>706</ele>
        <time>2012-08-11T07:28:57Z</time>
      </trkpt>
      <trkpt lat="45.77012" lon="4.63685">
        <ele>708</ele>
        <time>2012-08-11T07:29:09Z</time>
      </trkpt>
      <trkpt lat="45.77012" lon="4.63685">
        <ele>708</ele>
        <time>2012-08-11T07:29:19Z</time>
      </trkpt>
      <trkpt lat="45.76987" lon="4.63672">
        <ele>711</ele>
        <time>2012-08-11T07:29:33Z</time>
      </trkpt>
      <trkpt lat="45.76954" lon="4.63649">
        <ele>716</ele>
        <time>2012-08-11T07:29:45Z</time>
      </trkpt>
      <trkpt lat="45.7695" lon="4.63642">
        <ele>716</ele>
        <time>2012-08-11T07:29:48Z</time>
      </trkpt>
      <trkpt lat="45.76937" lon="4.63621">
        <ele>717</ele>
        <time>2012-08-11T07:29:56Z</time>
      </trkpt>
      <trkpt lat="45.76922" lon="4.6359">
        <ele>718</ele>
        <time>2012-08-11T07:30:07Z</time>
      </trkpt>
      <trkpt lat="45.76911" lon="4.63576">
        <ele>717</ele>
        <time>2012-08-11T07:30:15Z</time>
      </trkpt>
      <trkpt lat="45.76911" lon="4.63576">
        <ele>717</ele>
        <time>2012-08-11T07:30:26Z</time>
      </trkpt>
      <trkpt lat="45.76911" lon="4.63576">
        <ele>717</ele>
        <time>2012-08-11T07:30:36Z</time>
      </trkpt>
      <trkpt lat="45.76911" lon="4.63576">
        <ele>717</ele>
        <time>2012-08-11T07:30:37Z</time>
      </trkpt>
      <trkpt lat="45.76911" lon="4.63576">
        <ele>717</ele>
        <time>2012-08-11T07:30:40Z</time>
      </trkpt>
      <trkpt lat="45.76889" lon="4.63528">
        <ele>715</ele>
        <time>2012-08-11T07:30:43Z</time>
      </trkpt>
      <trkpt lat="45.76887" lon="4.63523">
        <ele>715</ele>
        <time>2012-08-11T07:30:52Z</time>
      </trkpt>
      <trkpt lat="45.7693" lon="4.63442">
        <ele>731</ele>
        <time>2012-08-11T07:31:03Z</time>
      </trkpt>
      <trkpt lat="45.76924" lon="4.6342">
        <ele>730</ele>
        <time>2012-08-11T07:31:13Z</time>
      </trkpt>
      <trkpt lat="45.76923" lon="4.63418">
        <ele>730</ele>
        <time>2012-08-11T07:31:14Z</time>
      </trkpt>
      <trkpt lat="45.76903" lon="4.634">
        <ele>726</ele>
        <time>2012-08-11T07:31:17Z</time>
      </trkpt>
      <trkpt lat="45.76882" lon="4.63364">
        <ele>725</ele>
        <time>2012-08-11T07:31:27Z</time>
      </trkpt>
      <trkpt lat="45.76881" lon="4.63359">
        <ele>725</ele>
        <time>2012-08-11T07:31:28Z</time>
      </trkpt>
      <trkpt lat="45.76878" lon="4.63344">
        <ele>726</ele>
        <time>2012-08-11T07:31:33Z</time>
      </trkpt>
      <trkpt lat="45.76871" lon="4.63325">
        <ele>729</ele>
        <time>2012-08-11T07:31:38Z</time>
      </trkpt>
      <trkpt lat="45.76862" lon="4.63312">
        <ele>729</ele>
        <time>2012-08-11T07:31:44Z</time>
      </trkpt>
      <trkpt lat="45.76844" lon="4.63274">
        <ele>730</ele>
        <time>2012-08-11T07:31:54Z</time>
      </trkpt>
      <trkpt lat="45.76815" lon="4.63252">
        <ele>726</ele>
        <time>2012-08-11T07:32:00Z</time>
      </trkpt>
      <trkpt lat="45.76696" lon="4.63128">
        <ele>729</ele>
        <time>2012-08-11T07:32:07Z</time>
      </trkpt>
      <trkpt lat="45.76653" lon="4.6309">
        <ele>725</ele>
        <time>2012-08-11T07:32:12Z</time>
      </trkpt>
      <trkpt lat="45.76614" lon="4.63069">
        <ele>728</ele>
        <time>2012-08-11T07:32:19Z</time>
      </trkpt>
      <trkpt lat="45.76564" lon="4.63062">
        <ele>728</ele>
        <time>2012-08-11T07:32:29Z</time>
      </trkpt>
      <trkpt lat="45.76551" lon="4.63066">
        <ele>729</ele>
        <time>2012-08-11T07:32:37Z</time>
      </trkpt>
      <trkpt lat="45.76551" lon="4.63066">
        <ele>729</ele>
        <time>2012-08-11T07:32:44Z</time>
      </trkpt>
      <trkpt lat="45.76554" lon="4.63065">
        <ele>729</ele>
        <time>2012-08-11T07:32:50Z</time>
      </trkpt>
      <trkpt lat="45.76554" lon="4.63065">
        <ele>729</ele>
        <time>2012-08-11T07:33:04Z</time>
      </trkpt>
      <trkpt lat="45.76554" lon="4.63065">
        <ele>729</ele>
        <time>2012-08-11T07:33:06Z</time>
      </trkpt>
      <trkpt lat="45.76572" lon="4.6306">
        <ele>728</ele>
        <time>2012-08-11T07:33:16Z</time>
      </trkpt>
      <trkpt lat="45.76575" lon="4.63059">
        <ele>728</ele>
        <time>2012-08-11T07:33:19Z</time>
      </trkpt>
      <trkpt lat="45.76597" lon="4.63062">
        <ele>728</ele>
        <time>2012-08-11T07:33:31Z</time>
      </trkpt>
      <trkpt lat="45.7661" lon="4.63067">
        <ele>728</ele>
        <time>2012-08-11T07:33:35Z</time>
      </trkpt>
      <trkpt lat="45.76648" lon="4.63087">
        <ele>724</ele>
        <time>2012-08-11T07:33:46Z</time>
      </trkpt>
      <trkpt lat="45.76679" lon="4.6311">
        <ele>729</ele>
        <time>2012-08-11T07:33:56Z</time>
      </trkpt>
      <trkpt lat="45.76681" lon="4.63112">
        <ele>729</ele>
        <time>2012-08-11T07:34:03Z</time>
      </trkpt>
      <trkpt lat="45.76711" lon="4.63149">
        <ele>730</ele>
        <time>2012-08-11T07:34:13Z</time>
      </trkpt>
      <trkpt lat="45.7672" lon="4.63164">
        <ele>731</ele>
        <time>2012-08-11T07:34:19Z</time>
      </trkpt>
      <trkpt lat="45.76726" lon="4.63174">
        <ele>724</ele>
        <time>2012-08-11T07:34:23Z</time>
      </trkpt>
      <trkpt lat="45.76745" lon="4.63205">
        <ele>722</ele>
        <time>2012-08-11T07:34:33Z</time>
      </trkpt>
      <trkpt lat="45.76763" lon="4.63238">
        <ele>726</ele>
        <time>2012-08-11T07:34:40Z</time>
      </trkpt>
      <trkpt lat="45.76782" lon="4.6327">
        <ele>721</ele>
        <time>2012-08-11T07:34:45Z</time>
      </trkpt>
      <trkpt lat="45.76787" lon="4.63279">
        <ele>721</ele>
        <time>2012-08-11T07:34:47Z</time>
      </trkpt>
      <trkpt lat="45.76809" lon="4.63309">
        <ele>721</ele>
        <time>2012-08-11T07:34:54Z</time>
      </trkpt>
      <trkpt lat="45.7683" lon="4.63347">
        <ele>717</ele>
        <time>2012-08-11T07:35:03Z</time>
      </trkpt>
      <trkpt lat="45.76835" lon="4.63359">
        <ele>723</ele>
        <time>2012-08-11T07:35:05Z</time>
      </trkpt>
      <trkpt lat="45.76847" lon="4.63393">
        <ele>721</ele>
        <time>2012-08-11T07:35:09Z</time>
      </trkpt>
      <trkpt lat="45.76852" lon="4.63411">
        <ele>720</ele>
        <time>2012-08-11T07:35:11Z</time>
      </trkpt>
      <trkpt lat="45.76863" lon="4.63453">
        <ele>718</ele>
        <time>2012-08-11T07:35:15Z</time>
      </trkpt>
      <trkpt lat="45.76885" lon="4.63518">
        <ele>715</ele>
        <time>2012-08-11T07:35:23Z</time>
      </trkpt>
      <trkpt lat="45.76893" lon="4.63539">
        <ele>715</ele>
        <time>2012-08-11T07:35:29Z</time>
      </trkpt>
      <trkpt lat="45.76893" lon="4.63539">
        <ele>715</ele>
        <time>2012-08-11T07:35:44Z</time>
      </trkpt>
      <trkpt lat="45.76893" lon="4.63539">
        <ele>715</ele>
        <time>2012-08-11T07:36:43Z</time>
      </trkpt>
      <trkpt lat="45.76893" lon="4.63539">
        <ele>715</ele>
        <time>2012-08-11T07:39:36Z</time>
      </trkpt>
      <trkpt lat="45.76895" lon="4.63542">
        <ele>715</ele>
        <time>2012-08-11T07:39:43Z</time>
      </trkpt>
      <trkpt lat="45.76895" lon="4.63542">
        <ele>715</ele>
        <time>2012-08-11T07:39:48Z</time>
      </trkpt>
      <trkpt lat="45.76883" lon="4.63511">
        <ele>715</ele>
        <time>2012-08-11T07:39:58Z</time>
      </trkpt>
      <trkpt lat="45.76881" lon="4.63506">
        <ele>715</ele>
        <time>2012-08-11T07:40:02Z</time>
      </trkpt>
      <trkpt lat="45.76878" lon="4.63499">
        <ele>718</ele>
        <time>2012-08-11T07:40:06Z</time>
      </trkpt>
      <trkpt lat="45.76875" lon="4.63491">
        <ele>718</ele>
        <time>2012-08-11T07:40:16Z</time>
      </trkpt>
      <trkpt lat="45.76875" lon="4.63491">
        <ele>718</ele>
        <time>2012-08-11T07:40:19Z</time>
      </trkpt>
      <trkpt lat="45.76865" lon="4.63462">
        <ele>718</ele>
        <time>2012-08-11T07:40:34Z</time>
      </trkpt>
      <trkpt lat="45.76865" lon="4.63462">
        <ele>718</ele>
        <time>2012-08-11T07:40:46Z</time>
      </trkpt>
      <trkpt lat="45.76847" lon="4.6339">
        <ele>721</ele>
        <time>2012-08-11T07:40:56Z</time>
      </trkpt>
      <trkpt lat="45.76841" lon="4.63373">
        <ele>723</ele>
        <time>2012-08-11T07:40:59Z</time>
      </trkpt>
      <trkpt lat="45.76818" lon="4.63321">
        <ele>722</ele>
        <time>2012-08-11T07:41:10Z</time>
      </trkpt>
      <trkpt lat="45.76793" lon="4.63287">
        <ele>721</ele>
        <time>2012-08-11T07:41:18Z</time>
      </trkpt>
      <trkpt lat="45.76769" lon="4.63248">
        <ele>726</ele>
        <time>2012-08-11T07:41:26Z</time>
      </trkpt>
      <trkpt lat="45.76767" lon="4.63245">
        <ele>726</ele>
        <time>2012-08-11T07:41:27Z</time>
      </trkpt>
      <trkpt lat="45.76741" lon="4.63201">
        <ele>722</ele>
        <time>2012-08-11T07:41:35Z</time>
      </trkpt>
      <trkpt lat="45.7674" lon="4.63198">
        <ele>722</ele>
        <time>2012-08-11T07:41:36Z</time>
      </trkpt>
      <trkpt lat="45.76737" lon="4.63194">
        <ele>723</ele>
        <time>2012-08-11T07:41:38Z</time>
      </trkpt>
      <trkpt lat="45.76733" lon="4.63186">
        <ele>724</ele>
        <time>2012-08-11T07:41:42Z</time>
      </trkpt>
      <trkpt lat="45.76715" lon="4.63156">
        <ele>730</ele>
        <time>2012-08-11T07:41:51Z</time>
      </trkpt>
      <trkpt lat="45.76706" lon="4.63142">
        <ele>729</ele>
        <time>2012-08-11T07:42:00Z</time>
      </trkpt>
      <trkpt lat="45.76706" lon="4.63142">
        <ele>729</ele>
        <time>2012-08-11T07:42:28Z</time>
      </trkpt>
      <trkpt lat="45.76706" lon="4.63142">
        <ele>729</ele>
        <time>2012-08-11T07:42:55Z</time>
      </trkpt>
      <trkpt lat="45.76689" lon="4.63166">
        <ele>724</ele>
        <time>2012-08-11T07:43:02Z</time>
      </trkpt>
      <trkpt lat="45.76721" lon="4.63165">
        <ele>731</ele>
        <time>2012-08-11T07:43:07Z</time>
      </trkpt>
      <trkpt lat="45.76725" lon="4.63173">
        <ele>724</ele>
        <time>2012-08-11T07:43:10Z</time>
      </trkpt>
      <trkpt lat="45.7673" lon="4.6318">
        <ele>724</ele>
        <time>2012-08-11T07:43:14Z</time>
      </trkpt>
      <trkpt lat="45.76733" lon="4.63188">
        <ele>724</ele>
        <time>2012-08-11T07:43:17Z</time>
      </trkpt>
      <trkpt lat="45.76744" lon="4.63205">
        <ele>722</ele>
        <time>2012-08-11T07:43:24Z</time>
      </trkpt>
      <trkpt lat="45.76759" lon="4.63231">
        <ele>727</ele>
        <time>2012-08-11T07:43:32Z</time>
      </trkpt>
      <trkpt lat="45.76718" lon="4.63326">
        <ele>700</ele>
        <time>2012-08-11T07:43:41Z</time>
      </trkpt>
      <trkpt lat="45.76723" lon="4.63339">
        <ele>692</ele>
        <time>2012-08-11T07:43:44Z</time>
      </trkpt>
      <trkpt lat="45.7674" lon="4.63354">
        <ele>693</ele>
        <time>2012-08-11T07:43:50Z</time>
      </trkpt>
      <trkpt lat="45.76742" lon="4.63358">
        <ele>693</ele>
        <time>2012-08-11T07:43:51Z</time>
      </trkpt>
      <trkpt lat="45.76759" lon="4.63396">
        <ele>699</ele>
        <time>2012-08-11T07:43:57Z</time>
      </trkpt>
      <trkpt lat="45.76764" lon="4.63416">
        <ele>696</ele>
        <time>2012-08-11T07:44:01Z</time>
      </trkpt>
      <trkpt lat="45.76774" lon="4.63441">
        <ele>694</ele>
        <time>2012-08-11T07:44:07Z</time>
      </trkpt>
      <trkpt lat="45.76779" lon="4.63454">
        <ele>695</ele>
        <time>2012-08-11T07:44:11Z</time>
      </trkpt>
      <trkpt lat="45.76784" lon="4.63475">
        <ele>694</ele>
        <time>2012-08-11T07:44:16Z</time>
      </trkpt>
      <trkpt lat="45.76789" lon="4.63491">
        <ele>694</ele>
        <time>2012-08-11T07:44:29Z</time>
      </trkpt>
      <trkpt lat="45.7679" lon="4.63498">
        <ele>695</ele>
        <time>2012-08-11T07:44:32Z</time>
      </trkpt>
      <trkpt lat="45.76787" lon="4.63507">
        <ele>690</ele>
        <time>2012-08-11T07:44:36Z</time>
      </trkpt>
      <trkpt lat="45.76778" lon="4.63499">
        <ele>691</ele>
        <time>2012-08-11T07:44:42Z</time>
      </trkpt>
      <trkpt lat="45.76777" lon="4.63523">
        <ele>688</ele>
        <time>2012-08-11T07:44:48Z</time>
      </trkpt>
      <trkpt lat="45.76785" lon="4.63534">
        <ele>689</ele>
        <time>2012-08-11T07:45:04Z</time>
      </trkpt>
      <trkpt lat="45.76785" lon="4.63535">
        <ele>689</ele>
        <time>2012-08-11T07:46:33Z</time>
      </trkpt>
      <trkpt lat="45.76785" lon="4.63558">
        <ele>689</ele>
        <time>2012-08-11T07:46:39Z</time>
      </trkpt>
      <trkpt lat="45.76786" lon="4.63583">
        <ele>688</ele>
        <time>2012-08-11T07:46:46Z</time>
      </trkpt>
      <trkpt lat="45.76789" lon="4.63599">
        <ele>687</ele>
        <time>2012-08-11T07:46:50Z</time>
      </trkpt>
      <trkpt lat="45.76786" lon="4.63636">
        <ele>687</ele>
        <time>2012-08-11T07:46:58Z</time>
      </trkpt>
      <trkpt lat="45.76777" lon="4.63658">
        <ele>685</ele>
        <time>2012-08-11T07:47:03Z</time>
      </trkpt>
      <trkpt lat="45.76775" lon="4.63681">
        <ele>682</ele>
        <time>2012-08-11T07:47:07Z</time>
      </trkpt>
      <trkpt lat="45.76759" lon="4.63724">
        <ele>679</ele>
        <time>2012-08-11T07:47:14Z</time>
      </trkpt>
      <trkpt lat="45.7675" lon="4.63737">
        <ele>667</ele>
        <time>2012-08-11T07:47:19Z</time>
      </trkpt>
      <trkpt lat="45.7675" lon="4.63737">
        <ele>667</ele>
        <time>2012-08-11T07:47:21Z</time>
      </trkpt>
      <trkpt lat="45.76745" lon="4.63732">
        <ele>665</ele>
        <time>2012-08-11T07:47:26Z</time>
      </trkpt>
      <trkpt lat="45.76734" lon="4.63728">
        <ele>664</ele>
        <time>2012-08-11T07:47:35Z</time>
      </trkpt>
      <trkpt lat="45.76726" lon="4.63733">
        <ele>662</ele>
        <time>2012-08-11T07:49:41Z</time>
      </trkpt>
      <trkpt lat="45.76702" lon="4.63732">
        <ele>657</ele>
        <time>2012-08-11T07:49:52Z</time>
      </trkpt>
      <trkpt lat="45.76696" lon="4.63727">
        <ele>656</ele>
        <time>2012-08-11T07:49:55Z</time>
      </trkpt>
      <trkpt lat="45.76672" lon="4.63724">
        <ele>653</ele>
        <time>2012-08-11T07:50:06Z</time>
      </trkpt>
      <trkpt lat="45.76665" lon="4.63719">
        <ele>639</ele>
        <time>2012-08-11T07:50:12Z</time>
      </trkpt>
      <trkpt lat="45.76663" lon="4.63716">
        <ele>639</ele>
        <time>2012-08-11T07:50:14Z</time>
      </trkpt>
      <trkpt lat="45.76643" lon="4.63721">
        <ele>637</ele>
        <time>2012-08-11T07:50:23Z</time>
      </trkpt>
      <trkpt lat="45.7664" lon="4.63723">
        <ele>636</ele>
        <time>2012-08-11T07:50:24Z</time>
      </trkpt>
      <trkpt lat="45.76625" lon="4.63735">
        <ele>634</ele>
        <time>2012-08-11T07:50:31Z</time>
      </trkpt>
      <trkpt lat="45.7662" lon="4.63755">
        <ele>629</ele>
        <time>2012-08-11T07:50:38Z</time>
      </trkpt>
      <trkpt lat="45.76621" lon="4.63764">
        <ele>629</ele>
        <time>2012-08-11T07:50:50Z</time>
      </trkpt>
      <trkpt lat="45.76621" lon="4.63766">
        <ele>629</ele>
        <time>2012-08-11T07:51:15Z</time>
      </trkpt>
      <trkpt lat="45.76619" lon="4.63779">
        <ele>629</ele>
        <time>2012-08-11T07:52:08Z</time>
      </trkpt>
      <trkpt lat="45.76615" lon="4.63804">
        <ele>627</ele>
        <time>2012-08-11T07:52:13Z</time>
      </trkpt>
      <trkpt lat="45.76615" lon="4.63826">
        <ele>626</ele>
        <time>2012-08-11T07:52:17Z</time>
      </trkpt>
      <trkpt lat="45.76613" lon="4.63866">
        <ele>619</ele>
        <time>2012-08-11T07:52:24Z</time>
      </trkpt>
      <trkpt lat="45.76614" lon="4.639">
        <ele>616</ele>
        <time>2012-08-11T07:52:31Z</time>
      </trkpt>
      <trkpt lat="45.76614" lon="4.63907">
        <ele>616</ele>
        <time>2012-08-11T07:52:33Z</time>
      </trkpt>
      <trkpt lat="45.76624" lon="4.63926">
        <ele>609</ele>
        <time>2012-08-11T07:52:37Z</time>
      </trkpt>
      <trkpt lat="45.76635" lon="4.63963">
        <ele>607</ele>
        <time>2012-08-11T07:52:44Z</time>
      </trkpt>
      <trkpt lat="45.76645" lon="4.63998">
        <ele>605</ele>
        <time>2012-08-11T07:52:50Z</time>
      </trkpt>
      <trkpt lat="45.76648" lon="4.64009">
        <ele>601</ele>
        <time>2012-08-11T07:52:54Z</time>
      </trkpt>
      <trkpt lat="45.76651" lon="4.64018">
        <ele>600</ele>
        <time>2012-08-11T07:52:58Z</time>
      </trkpt>
      <trkpt lat="45.7665" lon="4.64039">
        <ele>599</ele>
        <time>2012-08-11T07:53:06Z</time>
      </trkpt>
      <trkpt lat="45.76642" lon="4.64047">
        <ele>598</ele>
        <time>2012-08-11T07:53:11Z</time>
      </trkpt>
      <trkpt lat="45.76632" lon="4.64055">
        <ele>598</ele>
        <time>2012-08-11T07:53:15Z</time>
      </trkpt>
      <trkpt lat="45.76627" lon="4.64103">
        <ele>592</ele>
        <time>2012-08-11T07:53:22Z</time>
      </trkpt>
      <trkpt lat="45.76632" lon="4.64137">
        <ele>590</ele>
        <time>2012-08-11T07:53:27Z</time>
      </trkpt>
      <trkpt lat="45.76635" lon="4.64153">
        <ele>590</ele>
        <time>2012-08-11T07:53:29Z</time>
      </trkpt>
      <trkpt lat="45.76641" lon="4.64179">
        <ele>584</ele>
        <time>2012-08-11T07:53:32Z</time>
      </trkpt>
      <trkpt lat="45.76646" lon="4.64207">
        <ele>582</ele>
        <time>2012-08-11T07:53:36Z</time>
      </trkpt>
      <trkpt lat="45.76647" lon="4.64233">
        <ele>580</ele>
        <time>2012-08-11T07:53:39Z</time>
      </trkpt>
      <trkpt lat="45.76647" lon="4.64268">
        <ele>572</ele>
        <time>2012-08-11T07:53:44Z</time>
      </trkpt>
      <trkpt lat="45.76647" lon="4.64315">
        <ele>568</ele>
        <time>2012-08-11T07:53:52Z</time>
      </trkpt>
      <trkpt lat="45.76643" lon="4.64337">
        <ele>560</ele>
        <time>2012-08-11T07:53:58Z</time>
      </trkpt>
      <trkpt lat="45.76643" lon="4.64341">
        <ele>560</ele>
        <time>2012-08-11T07:53:59Z</time>
      </trkpt>
      <trkpt lat="45.76639" lon="4.64381">
        <ele>557</ele>
        <time>2012-08-11T07:54:06Z</time>
      </trkpt>
      <trkpt lat="45.7664" lon="4.64409">
        <ele>556</ele>
        <time>2012-08-11T07:54:10Z</time>
      </trkpt>
      <trkpt lat="45.7664" lon="4.64447">
        <ele>547</ele>
        <time>2012-08-11T07:54:17Z</time>
      </trkpt>
      <trkpt lat="45.76636" lon="4.64458">
        <ele>546</ele>
        <time>2012-08-11T07:54:26Z</time>
      </trkpt>
      <trkpt lat="45.76636" lon="4.64458">
        <ele>546</ele>
        <time>2012-08-11T07:55:18Z</time>
      </trkpt>
      <trkpt lat="45.76611" lon="4.64482">
        <ele>543</ele>
        <time>2012-08-11T07:55:25Z</time>
      </trkpt>
      <trkpt lat="45.76611" lon="4.64482">
        <ele>543</ele>
        <time>2012-08-11T07:55:27Z</time>
      </trkpt>
      <trkpt lat="45.76611" lon="4.64482">
        <ele>543</ele>
        <time>2012-08-11T07:55:29Z</time>
      </trkpt>
      <trkpt lat="45.76617" lon="4.64515">
        <ele>536</ele>
        <time>2012-08-11T07:55:36Z</time>
      </trkpt>
      <trkpt lat="45.76632" lon="4.64561">
        <ele>535</ele>
        <time>2012-08-11T07:55:43Z</time>
      </trkpt>
      <trkpt lat="45.76641" lon="4.64586">
        <ele>530</ele>
        <time>2012-08-11T07:55:47Z</time>
      </trkpt>
      <trkpt lat="45.76647" lon="4.64607">
        <ele>529</ele>
        <time>2012-08-11T07:55:50Z</time>
      </trkpt>
      <trkpt lat="45.7665" lon="4.6463">
        <ele>528</ele>
        <time>2012-08-11T07:55:53Z</time>
      </trkpt>
      <trkpt lat="45.76653" lon="4.64678">
        <ele>523</ele>
        <time>2012-08-11T07:55:57Z</time>
      </trkpt>
      <trkpt lat="45.76637" lon="4.64724">
        <ele>519</ele>
        <time>2012-08-11T07:56:05Z</time>
      </trkpt>
      <trkpt lat="45.76632" lon="4.64732">
        <ele>519</ele>
        <time>2012-08-11T07:56:13Z</time>
      </trkpt>
      <trkpt lat="45.76632" lon="4.64732">
        <ele>519</ele>
        <time>2012-08-11T07:56:19Z</time>
      </trkpt>
      <trkpt lat="45.76625" lon="4.64725">
        <ele>518</ele>
        <time>2012-08-11T07:56:31Z</time>
      </trkpt>
      <trkpt lat="45.76625" lon="4.64725">
        <ele>518</ele>
        <time>2012-08-11T07:56:44Z</time>
      </trkpt>
      <trkpt lat="45.76617" lon="4.64693">
        <ele>520</ele>
        <time>2012-08-11T07:56:55Z</time>
      </trkpt>
      <trkpt lat="45.76613" lon="4.64675">
        <ele>520</ele>
        <time>2012-08-11T07:56:59Z</time>
      </trkpt>
      <trkpt lat="45.76609" lon="4.64652">
        <ele>525</ele>
        <time>2012-08-11T07:57:12Z</time>
      </trkpt>
      <trkpt lat="45.76606" lon="4.64643">
        <ele>525</ele>
        <time>2012-08-11T07:57:23Z</time>
      </trkpt>
      <trkpt lat="45.76597" lon="4.64615">
        <ele>527</ele>
        <time>2012-08-11T07:57:32Z</time>
      </trkpt>
      <trkpt lat="45.76587" lon="4.64586">
        <ele>528</ele>
        <time>2012-08-11T07:57:43Z</time>
      </trkpt>
      <trkpt lat="45.76585" lon="4.64578">
        <ele>529</ele>
        <time>2012-08-11T07:57:50Z</time>
      </trkpt>
      <trkpt lat="45.76576" lon="4.64554">
        <ele>528</ele>
        <time>2012-08-11T07:57:58Z</time>
      </trkpt>
      <trkpt lat="45.76573" lon="4.64546">
        <ele>528</ele>
        <time>2012-08-11T07:58:03Z</time>
      </trkpt>
      <trkpt lat="45.76565" lon="4.64522">
        <ele>530</ele>
        <time>2012-08-11T07:58:12Z</time>
      </trkpt>
      <trkpt lat="45.76558" lon="4.6449">
        <ele>538</ele>
        <time>2012-08-11T07:58:23Z</time>
      </trkpt>
      <trkpt lat="45.76552" lon="4.64463">
        <ele>540</ele>
        <time>2012-08-11T07:58:33Z</time>
      </trkpt>
      <trkpt lat="45.76551" lon="4.64456">
        <ele>540</ele>
        <time>2012-08-11T07:58:38Z</time>
      </trkpt>
      <trkpt lat="45.76549" lon="4.64444">
        <ele>541</ele>
        <time>2012-08-11T07:58:42Z</time>
      </trkpt>
      <trkpt lat="45.76549" lon="4.64438">
        <ele>542</ele>
        <time>2012-08-11T07:58:44Z</time>
      </trkpt>
      <trkpt lat="45.76548" lon="4.64432">
        <ele>542</ele>
        <time>2012-08-11T07:58:55Z</time>
      </trkpt>
      <trkpt lat="45.76548" lon="4.64432">
        <ele>542</ele>
        <time>2012-08-11T07:58:56Z</time>
      </trkpt>
      <trkpt lat="45.76548" lon="4.64432">
        <ele>542</ele>
        <time>2012-08-11T07:59:10Z</time>
      </trkpt>
      <trkpt lat="45.76548" lon="4.64432">
        <ele>542</ele>
        <time>2012-08-11T07:59:21Z</time>
      </trkpt>
      <trkpt lat="45.76548" lon="4.64432">
        <ele>542</ele>
        <time>2012-08-11T07:59:28Z</time>
      </trkpt>
      <trkpt lat="45.76548" lon="4.64432">
        <ele>542</ele>
        <time>2012-08-11T07:59:41Z</time>
      </trkpt>
      <trkpt lat="45.76548" lon="4.64432">
        <ele>542</ele>
        <time>2012-08-11T07:59:56Z</time>
      </trkpt>
      <trkpt lat="45.76548" lon="4.64432">
        <ele>542</ele>
        <time>2012-08-11T08:00:15Z</time>
      </trkpt>
      <trkpt lat="45.76548" lon="4.64432">
        <ele>542</ele>
        <time>2012-08-11T08:00:34Z</time>
      </trkpt>
      <trkpt lat="45.76548" lon="4.64432">
        <ele>542</ele>
        <time>2012-08-11T08:00:38Z</time>
      </trkpt>
      <trkpt lat="45.76482" lon="4.64337">
        <ele>566</ele>
        <time>2012-08-11T08:00:42Z</time>
      </trkpt>
      <trkpt lat="45.76482" lon="4.64337">
        <ele>566</ele>
        <time>2012-08-11T08:00:53Z</time>
      </trkpt>
      <trkpt lat="45.76462" lon="4.6432">
        <ele>581</ele>
        <time>2012-08-11T08:01:04Z</time>
      </trkpt>
      <trkpt lat="45.76444" lon="4.64303">
        <ele>583</ele>
        <time>2012-08-11T08:01:16Z</time>
      </trkpt>
      <trkpt lat="45.76441" lon="4.643">
        <ele>583</ele>
        <time>2012-08-11T08:01:21Z</time>
      </trkpt>
      <trkpt lat="45.76436" lon="4.64296">
        <ele>584</ele>
        <time>2012-08-11T08:01:31Z</time>
      </trkpt>
      <trkpt lat="45.7642" lon="4.64287">
        <ele>586</ele>
        <time>2012-08-11T08:01:41Z</time>
      </trkpt>
      <trkpt lat="45.76412" lon="4.64284">
        <ele>581</ele>
        <time>2012-08-11T08:01:51Z</time>
      </trkpt>
      <trkpt lat="45.76412" lon="4.64284">
        <ele>581</ele>
        <time>2012-08-11T08:02:09Z</time>
      </trkpt>
      <trkpt lat="45.76412" lon="4.64284">
        <ele>581</ele>
        <time>2012-08-11T08:02:54Z</time>
      </trkpt>
      <trkpt lat="45.76412" lon="4.64284">
        <ele>581</ele>
        <time>2012-08-11T08:03:10Z</time>
      </trkpt>
      <trkpt lat="45.76412" lon="4.64284">
        <ele>581</ele>
        <time>2012-08-11T08:03:26Z</time>
      </trkpt>
      <trkpt lat="45.76412" lon="4.64284">
        <ele>581</ele>
        <time>2012-08-11T08:03:32Z</time>
      </trkpt>
      <trkpt lat="45.76412" lon="4.64284">
        <ele>581</ele>
        <time>2012-08-11T08:03:46Z</time>
      </trkpt>
      <trkpt lat="45.76412" lon="4.64284">
        <ele>581</ele>
        <time>2012-08-11T08:03:54Z</time>
      </trkpt>
      <trkpt lat="45.76412" lon="4.64284">
        <ele>581</ele>
        <time>2012-08-11T08:04:07Z</time>
      </trkpt>
      <trkpt lat="45.76412" lon="4.64284">
        <ele>581</ele>
        <time>2012-08-11T08:04:21Z</time>
      </trkpt>
      <trkpt lat="45.76361" lon="4.64176">
        <ele>597</ele>
        <time>2012-08-11T08:04:24Z</time>
      </trkpt>
      <trkpt lat="45.76361" lon="4.64176">
        <ele>597</ele>
        <time>2012-08-11T08:04:35Z</time>
      </trkpt>
      <trkpt lat="45.76361" lon="4.64176">
        <ele>597</ele>
        <time>2012-08-11T08:04:38Z</time>
      </trkpt>
      <trkpt lat="45.76348" lon="4.64146">
        <ele>606</ele>
        <time>2012-08-11T08:04:42Z</time>
      </trkpt>
      <trkpt lat="45.76346" lon="4.64138">
        <ele>607</ele>
        <time>2012-08-11T08:04:44Z</time>
      </trkpt>
      <trkpt lat="45.76345" lon="4.64124">
        <ele>609</ele>
        <time>2012-08-11T08:04:55Z</time>
      </trkpt>
      <trkpt lat="45.76345" lon="4.64124">
        <ele>609</ele>
        <time>2012-08-11T08:05:08Z</time>
      </trkpt>
      <trkpt lat="45.76345" lon="4.64124">
        <ele>609</ele>
        <time>2012-08-11T08:05:21Z</time>
      </trkpt>
      <trkpt lat="45.76345" lon="4.64124">
        <ele>609</ele>
        <time>2012-08-11T08:05:35Z</time>
      </trkpt>
      <trkpt lat="45.76345" lon="4.64124">
        <ele>609</ele>
        <time>2012-08-11T08:06:20Z</time>
      </trkpt>
      <trkpt lat="45.76345" lon="4.64124">
        <ele>609</ele>
        <time>2012-08-11T08:06:38Z</time>
      </trkpt>
      <trkpt lat="45.76322" lon="4.63998">
        <ele>625</ele>
        <time>2012-08-11T08:06:55Z</time>
      </trkpt>
      <trkpt lat="45.76322" lon="4.63998">
        <ele>625</ele>
        <time>2012-08-11T08:07:08Z</time>
      </trkpt>
      <trkpt lat="45.76322" lon="4.63998">
        <ele>625</ele>
        <time>2012-08-11T08:07:39Z</time>
      </trkpt>
      <trkpt lat="45.76322" lon="4.63998">
        <ele>625</ele>
        <time>2012-08-11T08:07:58Z</time>
      </trkpt>
      <trkpt lat="45.76322" lon="4.63998">
        <ele>625</ele>
        <time>2012-08-11T08:08:13Z</time>
      </trkpt>
      <trkpt lat="45.76322" lon="4.63998">
        <ele>625</ele>
        <time>2012-08-11T08:08:28Z</time>
      </trkpt>
      <trkpt lat="45.76322" lon="4.63998">
        <ele>625</ele>
        <time>2012-08-11T08:08:43Z</time>
      </trkpt>
      <trkpt lat="45.76322" lon="4.63998">
        <ele>625</ele>
        <time>2012-08-11T08:08:57Z</time>
      </trkpt>
      <trkpt lat="45.7631" lon="4.63869">
        <ele>643</ele>
        <time>2012-08-11T08:09:09Z</time>
      </trkpt>
      <trkpt lat="45.7631" lon="4.63869">
        <ele>643</ele>
        <time>2012-08-11T08:09:30Z</time>
      </trkpt>
      <trkpt lat="45.7631" lon="4.63869">
        <ele>643</ele>
        <time>2012-08-11T08:09:46Z</time>
      </trkpt>
      <trkpt lat="45.7631" lon="4.63869">
        <ele>643</ele>
        <time>2012-08-11T08:09:58Z</time>
      </trkpt>
      <trkpt lat="45.7631" lon="4.63869">
        <ele>643</ele>
        <time>2012-08-11T08:30:44Z</time>
      </trkpt>
      <trkpt lat="45.7631" lon="4.63869">
        <ele>643</ele>
        <time>2012-08-11T08:33:10Z</time>
      </trkpt>
      <trkpt lat="45.7631" lon="4.63869">
        <ele>643</ele>
        <time>2012-08-11T08:34:21Z</time>
      </trkpt>
      <trkpt lat="45.76238" lon="4.63843">
        <ele>640</ele>
        <time>2012-08-11T08:34:25Z</time>
      </trkpt>
      <trkpt lat="45.76204" lon="4.63849">
        <ele>635</ele>
        <time>2012-08-11T08:34:29Z</time>
      </trkpt>
      <trkpt lat="45.76177" lon="4.63848">
        <ele>634</ele>
        <time>2012-08-11T08:34:32Z</time>
      </trkpt>
      <trkpt lat="45.7613" lon="4.63834">
        <ele>624</ele>
        <time>2012-08-11T08:34:38Z</time>
      </trkpt>
      <trkpt lat="45.76116" lon="4.63848">
        <ele>622</ele>
        <time>2012-08-11T08:34:43Z</time>
      </trkpt>
      <trkpt lat="45.76112" lon="4.63858">
        <ele>622</ele>
        <time>2012-08-11T08:34:46Z</time>
      </trkpt>
      <trkpt lat="45.76099" lon="4.63889">
        <ele>619</ele>
        <time>2012-08-11T08:34:53Z</time>
      </trkpt>
      <trkpt lat="45.76098" lon="4.63894">
        <ele>619</ele>
        <time>2012-08-11T08:34:54Z</time>
      </trkpt>
      <trkpt lat="45.76089" lon="4.63939">
        <ele>611</ele>
        <time>2012-08-11T08:35:01Z</time>
      </trkpt>
      <trkpt lat="45.76083" lon="4.63957">
        <ele>603</ele>
        <time>2012-08-11T08:35:03Z</time>
      </trkpt>
      <trkpt lat="45.76078" lon="4.6399">
        <ele>601</ele>
        <time>2012-08-11T08:35:09Z</time>
      </trkpt>
      <trkpt lat="45.7607" lon="4.64023">
        <ele>594</ele>
        <time>2012-08-11T08:35:15Z</time>
      </trkpt>
      <trkpt lat="45.76086" lon="4.64049">
        <ele>596</ele>
        <time>2012-08-11T08:35:21Z</time>
      </trkpt>
      <trkpt lat="45.76087" lon="4.64069">
        <ele>594</ele>
        <time>2012-08-11T08:35:25Z</time>
      </trkpt>
      <trkpt lat="45.76069" lon="4.64089">
        <ele>585</ele>
        <time>2012-08-11T08:35:33Z</time>
      </trkpt>
      <trkpt lat="45.76059" lon="4.64093">
        <ele>581</ele>
        <time>2012-08-11T08:35:36Z</time>
      </trkpt>
      <trkpt lat="45.76064" lon="4.6412">
        <ele>578</ele>
        <time>2012-08-11T08:35:42Z</time>
      </trkpt>
      <trkpt lat="45.76083" lon="4.64185">
        <ele>569</ele>
        <time>2012-08-11T08:35:47Z</time>
      </trkpt>
      <trkpt lat="45.76083" lon="4.64185">
        <ele>569</ele>
        <time>2012-08-11T08:35:49Z</time>
      </trkpt>
      <trkpt lat="45.76079" lon="4.64217">
        <ele>563</ele>
        <time>2012-08-11T08:35:53Z</time>
      </trkpt>
      <trkpt lat="45.76074" lon="4.64235">
        <ele>562</ele>
        <time>2012-08-11T08:36:00Z</time>
      </trkpt>
      <trkpt lat="45.76072" lon="4.6425">
        <ele>561</ele>
        <time>2012-08-11T08:36:04Z</time>
      </trkpt>
      <trkpt lat="45.76049" lon="4.64248">
        <ele>558</ele>
        <time>2012-08-11T08:36:10Z</time>
      </trkpt>
      <trkpt lat="45.76021" lon="4.64251">
        <ele>545</ele>
        <time>2012-08-11T08:36:17Z</time>
      </trkpt>
      <trkpt lat="45.76028" lon="4.64251">
        <ele>546</ele>
        <time>2012-08-11T08:36:21Z</time>
      </trkpt>
      <trkpt lat="45.76031" lon="4.64254">
        <ele>546</ele>
        <time>2012-08-11T08:36:23Z</time>
      </trkpt>
      <trkpt lat="45.76027" lon="4.6425">
        <ele>553</ele>
        <time>2012-08-11T08:36:25Z</time>
      </trkpt>
      <trkpt lat="45.7599" lon="4.64334">
        <ele>525</ele>
        <time>2012-08-11T08:36:30Z</time>
      </trkpt>
      <trkpt lat="45.7599" lon="4.64339">
        <ele>524</ele>
        <time>2012-08-11T08:36:36Z</time>
      </trkpt>
      <trkpt lat="45.7599" lon="4.64361">
        <ele>518</ele>
        <time>2012-08-11T08:36:40Z</time>
      </trkpt>
      <trkpt lat="45.75983" lon="4.6436">
        <ele>517</ele>
        <time>2012-08-11T08:36:43Z</time>
      </trkpt>
      <trkpt lat="45.75954" lon="4.6433">
        <ele>520</ele>
        <time>2012-08-11T08:36:49Z</time>
      </trkpt>
      <trkpt lat="45.75939" lon="4.64302">
        <ele>519</ele>
        <time>2012-08-11T08:36:53Z</time>
      </trkpt>
      <trkpt lat="45.7592" lon="4.64257">
        <ele>516</ele>
        <time>2012-08-11T08:36:58Z</time>
      </trkpt>
      <trkpt lat="45.75897" lon="4.64213">
        <ele>513</ele>
        <time>2012-08-11T08:37:03Z</time>
      </trkpt>
      <trkpt lat="45.75867" lon="4.6417">
        <ele>513</ele>
        <time>2012-08-11T08:37:10Z</time>
      </trkpt>
      <trkpt lat="45.75864" lon="4.64168">
        <ele>513</ele>
        <time>2012-08-11T08:37:11Z</time>
      </trkpt>
      <trkpt lat="45.75839" lon="4.64172">
        <ele>510</ele>
        <time>2012-08-11T08:37:18Z</time>
      </trkpt>
      <trkpt lat="45.7581" lon="4.64161">
        <ele>512</ele>
        <time>2012-08-11T08:37:24Z</time>
      </trkpt>
      <trkpt lat="45.7581" lon="4.64161">
        <ele>512</ele>
        <time>2012-08-11T08:37:34Z</time>
      </trkpt>
      <trkpt lat="45.7581" lon="4.64161">
        <ele>512</ele>
        <time>2012-08-11T08:38:41Z</time>
      </trkpt>
      <trkpt lat="45.75813" lon="4.64162">
        <ele>512</ele>
        <time>2012-08-11T08:38:51Z</time>
      </trkpt>
      <trkpt lat="45.75813" lon="4.64163">
        <ele>512</ele>
        <time>2012-08-11T08:39:02Z</time>
      </trkpt>
      <trkpt lat="45.75807" lon="4.64158">
        <ele>513</ele>
        <time>2012-08-11T08:39:07Z</time>
      </trkpt>
      <trkpt lat="45.75784" lon="4.64149">
        <ele>512</ele>
        <time>2012-08-11T08:39:18Z</time>
      </trkpt>
      <trkpt lat="45.7576" lon="4.6414">
        <ele>511</ele>
        <time>2012-08-11T08:39:27Z</time>
      </trkpt>
      <trkpt lat="45.75739" lon="4.64127">
        <ele>509</ele>
        <time>2012-08-11T08:39:33Z</time>
      </trkpt>
      <trkpt lat="45.75727" lon="4.64105">
        <ele>510</ele>
        <time>2012-08-11T08:39:37Z</time>
      </trkpt>
      <trkpt lat="45.75726" lon="4.64091">
        <ele>511</ele>
        <time>2012-08-11T08:39:39Z</time>
      </trkpt>
      <trkpt lat="45.75735" lon="4.64046">
        <ele>517</ele>
        <time>2012-08-11T08:39:46Z</time>
      </trkpt>
      <trkpt lat="45.75748" lon="4.64019">
        <ele>519</ele>
        <time>2012-08-11T08:39:51Z</time>
      </trkpt>
      <trkpt lat="45.7577" lon="4.63982">
        <ele>528</ele>
        <time>2012-08-11T08:39:59Z</time>
      </trkpt>
      <trkpt lat="45.75762" lon="4.63973">
        <ele>528</ele>
        <time>2012-08-11T08:40:05Z</time>
      </trkpt>
      <trkpt lat="45.75745" lon="4.63989">
        <ele>524</ele>
        <time>2012-08-11T08:40:11Z</time>
      </trkpt>
      <trkpt lat="45.75721" lon="4.64005">
        <ele>519</ele>
        <time>2012-08-11T08:40:20Z</time>
      </trkpt>
      <trkpt lat="45.757" lon="4.64025">
        <ele>518</ele>
        <time>2012-08-11T08:40:27Z</time>
      </trkpt>
      <trkpt lat="45.75649" lon="4.64007">
        <ele>523</ele>
        <time>2012-08-11T08:40:35Z</time>
      </trkpt>
      <trkpt lat="45.75645" lon="4.6401">
        <ele>522</ele>
        <time>2012-08-11T08:40:38Z</time>
      </trkpt>
      <trkpt lat="45.75605" lon="4.64142">
        <ele>513</ele>
        <time>2012-08-11T08:40:46Z</time>
      </trkpt>
      <trkpt lat="45.75613" lon="4.6416">
        <ele>513</ele>
        <time>2012-08-11T08:40:54Z</time>
      </trkpt>
      <trkpt lat="45.75611" lon="4.64199">
        <ele>511</ele>
        <time>2012-08-11T08:41:02Z</time>
      </trkpt>
      <trkpt lat="45.75607" lon="4.64215">
        <ele>510</ele>
        <time>2012-08-11T08:41:11Z</time>
      </trkpt>
      <trkpt lat="45.75603" lon="4.64221">
        <ele>510</ele>
        <time>2012-08-11T08:41:19Z</time>
      </trkpt>
      <trkpt lat="45.75651" lon="4.64301">
        <ele>509</ele>
        <time>2012-08-11T08:41:25Z</time>
      </trkpt>
      <trkpt lat="45.75648" lon="4.64311">
        <ele>510</ele>
        <time>2012-08-11T08:41:39Z</time>
      </trkpt>
      <trkpt lat="45.75648" lon="4.64311">
        <ele>510</ele>
        <time>2012-08-11T08:42:22Z</time>
      </trkpt>
      <trkpt lat="45.75641" lon="4.64309">
        <ele>509</ele>
        <time>2012-08-11T08:42:26Z</time>
      </trkpt>
      <trkpt lat="45.75596" lon="4.64296">
        <ele>508</ele>
        <time>2012-08-11T08:42:34Z</time>
      </trkpt>
      <trkpt lat="45.75579" lon="4.64307">
        <ele>503</ele>
        <time>2012-08-11T08:42:38Z</time>
      </trkpt>
      <trkpt lat="45.75578" lon="4.64401">
        <ele>495</ele>
        <time>2012-08-11T08:42:47Z</time>
      </trkpt>
      <trkpt lat="45.75571" lon="4.64409">
        <ele>495</ele>
        <time>2012-08-11T08:42:52Z</time>
      </trkpt>
      <trkpt lat="45.75564" lon="4.64403">
        <ele>494</ele>
        <time>2012-08-11T08:42:55Z</time>
      </trkpt>
      <trkpt lat="45.75524" lon="4.64374">
        <ele>492</ele>
        <time>2012-08-11T08:43:01Z</time>
      </trkpt>
      <trkpt lat="45.75494" lon="4.64375">
        <ele>490</ele>
        <time>2012-08-11T08:43:05Z</time>
      </trkpt>
      <trkpt lat="45.7546" lon="4.6441">
        <ele>489</ele>
        <time>2012-08-11T08:43:11Z</time>
      </trkpt>
      <trkpt lat="45.75433" lon="4.64486">
        <ele>478</ele>
        <time>2012-08-11T08:43:17Z</time>
      </trkpt>
      <trkpt lat="45.75423" lon="4.64525">
        <ele>473</ele>
        <time>2012-08-11T08:43:20Z</time>
      </trkpt>
      <trkpt lat="45.75405" lon="4.64568">
        <ele>476</ele>
        <time>2012-08-11T08:43:24Z</time>
      </trkpt>
      <trkpt lat="45.75392" lon="4.64614">
        <ele>473</ele>
        <time>2012-08-11T08:43:29Z</time>
      </trkpt>
      <trkpt lat="45.75397" lon="4.64658">
        <ele>470</ele>
        <time>2012-08-11T08:43:34Z</time>
      </trkpt>
      <trkpt lat="45.75398" lon="4.64686">
        <ele>468</ele>
        <time>2012-08-11T08:43:37Z</time>
      </trkpt>
      <trkpt lat="45.75398" lon="4.64704">
        <ele>468</ele>
        <time>2012-08-11T08:43:39Z</time>
      </trkpt>
      <trkpt lat="45.75388" lon="4.64755">
        <ele>464</ele>
        <time>2012-08-11T08:43:47Z</time>
      </trkpt>
      <trkpt lat="45.75373" lon="4.64744">
        <ele>469</ele>
        <time>2012-08-11T08:43:56Z</time>
      </trkpt>
      <trkpt lat="45.75348" lon="4.64722">
        <ele>470</ele>
        <time>2012-08-11T08:44:06Z</time>
      </trkpt>
      <trkpt lat="45.75319" lon="4.64723">
        <ele>477</ele>
        <time>2012-08-11T08:44:17Z</time>
      </trkpt>
      <trkpt lat="45.75286" lon="4.64731">
        <ele>478</ele>
        <time>2012-08-11T08:44:29Z</time>
      </trkpt>
      <trkpt lat="45.75269" lon="4.64738">
        <ele>478</ele>
        <time>2012-08-11T08:44:37Z</time>
      </trkpt>
      <trkpt lat="45.75237" lon="4.64754">
        <ele>476</ele>
        <time>2012-08-11T08:44:50Z</time>
      </trkpt>
      <trkpt lat="45.75209" lon="4.64774">
        <ele>476</ele>
        <time>2012-08-11T08:45:03Z</time>
      </trkpt>
      <trkpt lat="45.75172" lon="4.64792">
        <ele>475</ele>
        <time>2012-08-11T08:45:14Z</time>
      </trkpt>
      <trkpt lat="45.75139" lon="4.64799">
        <ele>481</ele>
        <time>2012-08-11T08:45:20Z</time>
      </trkpt>
      <trkpt lat="45.75119" lon="4.64824">
        <ele>481</ele>
        <time>2012-08-11T08:45:26Z</time>
      </trkpt>
      <trkpt lat="45.75094" lon="4.64864">
        <ele>472</ele>
        <time>2012-08-11T08:45:37Z</time>
      </trkpt>
      <trkpt lat="45.7507" lon="4.64876">
        <ele>477</ele>
        <time>2012-08-11T08:45:48Z</time>
      </trkpt>
      <trkpt lat="45.75044" lon="4.64867">
        <ele>478</ele>
        <time>2012-08-11T08:45:59Z</time>
      </trkpt>
      <trkpt lat="45.75013" lon="4.64857">
        <ele>480</ele>
        <time>2012-08-11T08:46:11Z</time>
      </trkpt>
      <trkpt lat="45.74971" lon="4.64849">
        <ele>479</ele>
        <time>2012-08-11T08:46:24Z</time>
      </trkpt>
      <trkpt lat="45.74936" lon="4.64823">
        <ele>486</ele>
        <time>2012-08-11T08:46:35Z</time>
      </trkpt>
      <trkpt lat="45.74912" lon="4.6477">
        <ele>493</ele>
        <time>2012-08-11T08:46:46Z</time>
      </trkpt>
      <trkpt lat="45.74898" lon="4.64749">
        <ele>503</ele>
        <time>2012-08-11T08:46:53Z</time>
      </trkpt>
      <trkpt lat="45.74873" lon="4.64744">
        <ele>508</ele>
        <time>2012-08-11T08:47:02Z</time>
      </trkpt>
      <trkpt lat="45.74851" lon="4.64758">
        <ele>499</ele>
        <time>2012-08-11T08:47:11Z</time>
      </trkpt>
      <trkpt lat="45.74836" lon="4.64777">
        <ele>497</ele>
        <time>2012-08-11T08:47:20Z</time>
      </trkpt>
      <trkpt lat="45.74825" lon="4.64795">
        <ele>506</ele>
        <time>2012-08-11T08:47:29Z</time>
      </trkpt>
      <trkpt lat="45.74807" lon="4.64818">
        <ele>506</ele>
        <time>2012-08-11T08:47:39Z</time>
      </trkpt>
      <trkpt lat="45.748" lon="4.64824">
        <ele>507</ele>
        <time>2012-08-11T08:47:47Z</time>
      </trkpt>
      <trkpt lat="45.748" lon="4.64824">
        <ele>507</ele>
        <time>2012-08-11T08:47:53Z</time>
      </trkpt>
      <trkpt lat="45.74791" lon="4.6485">
        <ele>502</ele>
        <time>2012-08-11T08:47:57Z</time>
      </trkpt>
      <trkpt lat="45.74767" lon="4.64867">
        <ele>505</ele>
        <time>2012-08-11T08:48:08Z</time>
      </trkpt>
      <trkpt lat="45.74755" lon="4.64872">
        <ele>506</ele>
        <time>2012-08-11T08:48:15Z</time>
      </trkpt>
      <trkpt lat="45.7475" lon="4.64881">
        <ele>505</ele>
        <time>2012-08-11T08:48:21Z</time>
      </trkpt>
      <trkpt lat="45.7475" lon="4.64893">
        <ele>505</ele>
        <time>2012-08-11T08:48:25Z</time>
      </trkpt>
      <trkpt lat="45.74752" lon="4.64904">
        <ele>506</ele>
        <time>2012-08-11T08:48:29Z</time>
      </trkpt>
      <trkpt lat="45.74753" lon="4.6491">
        <ele>507</ele>
        <time>2012-08-11T08:48:33Z</time>
      </trkpt>
      <trkpt lat="45.74753" lon="4.6491">
        <ele>507</ele>
        <time>2012-08-11T08:48:43Z</time>
      </trkpt>
      <trkpt lat="45.74753" lon="4.6491">
        <ele>507</ele>
        <time>2012-08-11T08:49:03Z</time>
      </trkpt>
      <trkpt lat="45.74754" lon="4.6492">
        <ele>506</ele>
        <time>2012-08-11T08:49:11Z</time>
      </trkpt>
      <trkpt lat="45.74754" lon="4.6492">
        <ele>506</ele>
        <time>2012-08-11T08:49:15Z</time>
      </trkpt>
      <trkpt lat="45.7475" lon="4.6489">
        <ele>505</ele>
        <time>2012-08-11T08:49:27Z</time>
      </trkpt>
      <trkpt lat="45.74752" lon="4.64875">
        <ele>505</ele>
        <time>2012-08-11T08:49:36Z</time>
      </trkpt>
      <trkpt lat="45.74752" lon="4.64837">
        <ele>515</ele>
        <time>2012-08-11T08:49:47Z</time>
      </trkpt>
      <trkpt lat="45.7476" lon="4.64811">
        <ele>514</ele>
        <time>2012-08-11T08:49:55Z</time>
      </trkpt>
      <trkpt lat="45.74776" lon="4.64784">
        <ele>514</ele>
        <time>2012-08-11T08:50:04Z</time>
      </trkpt>
      <trkpt lat="45.74788" lon="4.6476">
        <ele>514</ele>
        <time>2012-08-11T08:50:13Z</time>
      </trkpt>
      <trkpt lat="45.74801" lon="4.64712">
        <ele>526</ele>
        <time>2012-08-11T08:50:24Z</time>
      </trkpt>
      <trkpt lat="45.74816" lon="4.64679">
        <ele>528</ele>
        <time>2012-08-11T08:50:34Z</time>
      </trkpt>
      <trkpt lat="45.74827" lon="4.64658">
        <ele>534</ele>
        <time>2012-08-11T08:50:41Z</time>
      </trkpt>
      <trkpt lat="45.74842" lon="4.64615">
        <ele>535</ele>
        <time>2012-08-11T08:50:51Z</time>
      </trkpt>
      <trkpt lat="45.74865" lon="4.64593">
        <ele>536</ele>
        <time>2012-08-11T08:51:01Z</time>
      </trkpt>
      <trkpt lat="45.74894" lon="4.64583">
        <ele>544</ele>
        <time>2012-08-11T08:51:12Z</time>
      </trkpt>
      <trkpt lat="45.74919" lon="4.64574">
        <ele>540</ele>
        <time>2012-08-11T08:51:22Z</time>
      </trkpt>
      <trkpt lat="45.74939" lon="4.64582">
        <ele>545</ele>
        <time>2012-08-11T08:51:30Z</time>
      </trkpt>
      <trkpt lat="45.74961" lon="4.64604">
        <ele>534</ele>
        <time>2012-08-11T08:51:40Z</time>
      </trkpt>
      <trkpt lat="45.74976" lon="4.64618">
        <ele>534</ele>
        <time>2012-08-11T08:51:48Z</time>
      </trkpt>
      <trkpt lat="45.75" lon="4.64621">
        <ele>535</ele>
        <time>2012-08-11T08:51:58Z</time>
      </trkpt>
      <trkpt lat="45.75027" lon="4.64606">
        <ele>538</ele>
        <time>2012-08-11T08:52:09Z</time>
      </trkpt>
      <trkpt lat="45.75041" lon="4.64585">
        <ele>539</ele>
        <time>2012-08-11T08:52:18Z</time>
      </trkpt>
      <trkpt lat="45.75042" lon="4.64584">
        <ele>539</ele>
        <time>2012-08-11T08:52:19Z</time>
      </trkpt>
      <trkpt lat="45.75049" lon="4.64579">
        <ele>551</ele>
        <time>2012-08-11T08:52:23Z</time>
      </trkpt>
      <trkpt lat="45.75059" lon="4.6456">
        <ele>552</ele>
        <time>2012-08-11T08:52:34Z</time>
      </trkpt>
      <trkpt lat="45.7506" lon="4.64544">
        <ele>554</ele>
        <time>2012-08-11T08:52:43Z</time>
      </trkpt>
      <trkpt lat="45.75061" lon="4.64545">
        <ele>554</ele>
        <time>2012-08-11T08:53:36Z</time>
      </trkpt>
      <trkpt lat="45.75085" lon="4.64533">
        <ele>550</ele>
        <time>2012-08-11T08:53:48Z</time>
      </trkpt>
      <trkpt lat="45.75101" lon="4.64526">
        <ele>550</ele>
        <time>2012-08-11T08:53:56Z</time>
      </trkpt>
      <trkpt lat="45.75125" lon="4.64512">
        <ele>549</ele>
        <time>2012-08-11T08:54:07Z</time>
      </trkpt>
      <trkpt lat="45.75147" lon="4.64484">
        <ele>560</ele>
        <time>2012-08-11T08:54:21Z</time>
      </trkpt>
      <trkpt lat="45.75159" lon="4.64465">
        <ele>563</ele>
        <time>2012-08-11T08:54:32Z</time>
      </trkpt>
      <trkpt lat="45.75167" lon="4.64451">
        <ele>553</ele>
        <time>2012-08-11T08:54:41Z</time>
      </trkpt>
      <trkpt lat="45.75176" lon="4.64427">
        <ele>560</ele>
        <time>2012-08-11T08:54:52Z</time>
      </trkpt>
      <trkpt lat="45.75188" lon="4.64399">
        <ele>567</ele>
        <time>2012-08-11T08:55:03Z</time>
      </trkpt>
      <trkpt lat="45.75203" lon="4.64368">
        <ele>568</ele>
        <time>2012-08-11T08:55:14Z</time>
      </trkpt>
      <trkpt lat="45.75222" lon="4.64348">
        <ele>566</ele>
        <time>2012-08-11T08:55:24Z</time>
      </trkpt>
      <trkpt lat="45.75239" lon="4.64328">
        <ele>570</ele>
        <time>2012-08-11T08:55:35Z</time>
      </trkpt>
      <trkpt lat="45.75249" lon="4.64305">
        <ele>576</ele>
        <time>2012-08-11T08:55:45Z</time>
      </trkpt>
      <trkpt lat="45.75254" lon="4.64286">
        <ele>562</ele>
        <time>2012-08-11T08:55:54Z</time>
      </trkpt>
      <trkpt lat="45.75261" lon="4.64266">
        <ele>566</ele>
        <time>2012-08-11T08:56:03Z</time>
      </trkpt>
      <trkpt lat="45.75267" lon="4.64254">
        <ele>567</ele>
        <time>2012-08-11T08:56:08Z</time>
      </trkpt>
      <trkpt lat="45.75274" lon="4.64237">
        <ele>572</ele>
        <time>2012-08-11T08:56:15Z</time>
      </trkpt>
      <trkpt lat="45.75275" lon="4.64221">
        <ele>572</ele>
        <time>2012-08-11T08:56:26Z</time>
      </trkpt>
      <trkpt lat="45.75275" lon="4.64215">
        <ele>573</ele>
        <time>2012-08-11T08:56:29Z</time>
      </trkpt>
      <trkpt lat="45.75279" lon="4.64185">
        <ele>575</ele>
        <time>2012-08-11T08:56:41Z</time>
      </trkpt>
      <trkpt lat="45.75289" lon="4.64158">
        <ele>582</ele>
        <time>2012-08-11T08:56:51Z</time>
      </trkpt>
      <trkpt lat="45.75298" lon="4.64132">
        <ele>581</ele>
        <time>2012-08-11T08:57:02Z</time>
      </trkpt>
      <trkpt lat="45.753" lon="4.64114">
        <ele>582</ele>
        <time>2012-08-11T08:57:10Z</time>
      </trkpt>
      <trkpt lat="45.75303" lon="4.64078">
        <ele>591</ele>
        <time>2012-08-11T08:57:21Z</time>
      </trkpt>
      <trkpt lat="45.75332" lon="4.64037">
        <ele>593</ele>
        <time>2012-08-11T08:57:31Z</time>
      </trkpt>
      <trkpt lat="45.75343" lon="4.64025">
        <ele>581</ele>
        <time>2012-08-11T08:57:37Z</time>
      </trkpt>
      <trkpt lat="45.75341" lon="4.64017">
        <ele>583</ele>
        <time>2012-08-11T08:57:39Z</time>
      </trkpt>
      <trkpt lat="45.75352" lon="4.64009">
        <ele>583</ele>
        <time>2012-08-11T08:57:44Z</time>
      </trkpt>
      <trkpt lat="45.75359" lon="4.64003">
        <ele>581</ele>
        <time>2012-08-11T08:57:47Z</time>
      </trkpt>
      <trkpt lat="45.75368" lon="4.63986">
        <ele>595</ele>
        <time>2012-08-11T08:57:57Z</time>
      </trkpt>
      <trkpt lat="45.75382" lon="4.63967">
        <ele>595</ele>
        <time>2012-08-11T08:58:09Z</time>
      </trkpt>
      <trkpt lat="45.75391" lon="4.63945">
        <ele>597</ele>
        <time>2012-08-11T08:58:18Z</time>
      </trkpt>
      <trkpt lat="45.75403" lon="4.63925">
        <ele>597</ele>
        <time>2012-08-11T08:58:27Z</time>
      </trkpt>
      <trkpt lat="45.75417" lon="4.63906">
        <ele>596</ele>
        <time>2012-08-11T08:58:31Z</time>
      </trkpt>
      <trkpt lat="45.75421" lon="4.63892">
        <ele>597</ele>
        <time>2012-08-11T08:58:35Z</time>
      </trkpt>
      <trkpt lat="45.75446" lon="4.6386">
        <ele>600</ele>
        <time>2012-08-11T08:58:43Z</time>
      </trkpt>
      <trkpt lat="45.75472" lon="4.63845">
        <ele>598</ele>
        <time>2012-08-11T08:58:51Z</time>
      </trkpt>
      <trkpt lat="45.75496" lon="4.63832">
        <ele>601</ele>
        <time>2012-08-11T08:59:01Z</time>
      </trkpt>
      <trkpt lat="45.75515" lon="4.63813">
        <ele>601</ele>
        <time>2012-08-11T08:59:11Z</time>
      </trkpt>
      <trkpt lat="45.7553" lon="4.63795">
        <ele>603</ele>
        <time>2012-08-11T08:59:19Z</time>
      </trkpt>
      <trkpt lat="45.75541" lon="4.63778">
        <ele>604</ele>
        <time>2012-08-11T08:59:27Z</time>
      </trkpt>
      <trkpt lat="45.75546" lon="4.63768">
        <ele>605</ele>
        <time>2012-08-11T08:59:37Z</time>
      </trkpt>
      <trkpt lat="45.75554" lon="4.63751">
        <ele>605</ele>
        <time>2012-08-11T08:59:45Z</time>
      </trkpt>
      <trkpt lat="45.75571" lon="4.63723">
        <ele>619</ele>
        <time>2012-08-11T08:59:57Z</time>
      </trkpt>
      <trkpt lat="45.75572" lon="4.63722">
        <ele>619</ele>
        <time>2012-08-11T08:59:58Z</time>
      </trkpt>
      <trkpt lat="45.75589" lon="4.63698">
        <ele>607</ele>
        <time>2012-08-11T09:00:07Z</time>
      </trkpt>
      <trkpt lat="45.75594" lon="4.63686">
        <ele>611</ele>
        <time>2012-08-11T09:00:12Z</time>
      </trkpt>
      <trkpt lat="45.75613" lon="4.63652">
        <ele>616</ele>
        <time>2012-08-11T09:00:23Z</time>
      </trkpt>
      <trkpt lat="45.75623" lon="4.63614">
        <ele>615</ele>
        <time>2012-08-11T09:00:33Z</time>
      </trkpt>
      <trkpt lat="45.75627" lon="4.63583">
        <ele>618</ele>
        <time>2012-08-11T09:00:40Z</time>
      </trkpt>
      <trkpt lat="45.75625" lon="4.63551">
        <ele>619</ele>
        <time>2012-08-11T09:00:49Z</time>
      </trkpt>
      <trkpt lat="45.75619" lon="4.63517">
        <ele>620</ele>
        <time>2012-08-11T09:00:59Z</time>
      </trkpt>
      <trkpt lat="45.75614" lon="4.63484">
        <ele>622</ele>
        <time>2012-08-11T09:01:09Z</time>
      </trkpt>
      <trkpt lat="45.75607" lon="4.63457">
        <ele>623</ele>
        <time>2012-08-11T09:01:18Z</time>
      </trkpt>
      <trkpt lat="45.75602" lon="4.6344">
        <ele>625</ele>
        <time>2012-08-11T09:01:24Z</time>
      </trkpt>
      <trkpt lat="45.75602" lon="4.63411">
        <ele>628</ele>
        <time>2012-08-11T09:01:33Z</time>
      </trkpt>
      <trkpt lat="45.756" lon="4.63405">
        <ele>628</ele>
        <time>2012-08-11T09:01:35Z</time>
      </trkpt>
      <trkpt lat="45.75604" lon="4.63371">
        <ele>626</ele>
        <time>2012-08-11T09:01:44Z</time>
      </trkpt>
      <trkpt lat="45.75596" lon="4.63356">
        <ele>629</ele>
        <time>2012-08-11T09:01:46Z</time>
      </trkpt>
      <trkpt lat="45.75599" lon="4.63321">
        <ele>633</ele>
        <time>2012-08-11T09:01:54Z</time>
      </trkpt>
      <trkpt lat="45.75599" lon="4.6328">
        <ele>632</ele>
        <time>2012-08-11T09:02:03Z</time>
      </trkpt>
      <trkpt lat="45.75596" lon="4.6325">
        <ele>637</ele>
        <time>2012-08-11T09:02:12Z</time>
      </trkpt>
      <trkpt lat="45.75597" lon="4.63246">
        <ele>639</ele>
        <time>2012-08-11T09:02:13Z</time>
      </trkpt>
      <trkpt lat="45.75601" lon="4.63214">
        <ele>638</ele>
        <time>2012-08-11T09:02:23Z</time>
      </trkpt>
      <trkpt lat="45.75602" lon="4.63181">
        <ele>642</ele>
        <time>2012-08-11T09:02:34Z</time>
      </trkpt>
      <trkpt lat="45.75602" lon="4.6317">
        <ele>643</ele>
        <time>2012-08-11T09:02:39Z</time>
      </trkpt>
      <trkpt lat="45.75613" lon="4.63129">
        <ele>649</ele>
        <time>2012-08-11T09:02:50Z</time>
      </trkpt>
      <trkpt lat="45.75618" lon="4.63088">
        <ele>652</ele>
        <time>2012-08-11T09:03:02Z</time>
      </trkpt>
      <trkpt lat="45.75626" lon="4.63055">
        <ele>664</ele>
        <time>2012-08-11T09:03:10Z</time>
      </trkpt>
      <trkpt lat="45.75639" lon="4.63047">
        <ele>664</ele>
        <time>2012-08-11T09:03:17Z</time>
      </trkpt>
      <trkpt lat="45.75663" lon="4.63054">
        <ele>661</ele>
        <time>2012-08-11T09:03:28Z</time>
      </trkpt>
      <trkpt lat="45.75682" lon="4.63081">
        <ele>658</ele>
        <time>2012-08-11T09:03:38Z</time>
      </trkpt>
      <trkpt lat="45.75707" lon="4.63106">
        <ele>649</ele>
        <time>2012-08-11T09:03:47Z</time>
      </trkpt>
      <trkpt lat="45.7573" lon="4.63131">
        <ele>647</ele>
        <time>2012-08-11T09:03:55Z</time>
      </trkpt>
      <trkpt lat="45.75758" lon="4.63131">
        <ele>658</ele>
        <time>2012-08-11T09:04:03Z</time>
      </trkpt>
      <trkpt lat="45.75783" lon="4.63113">
        <ele>663</ele>
        <time>2012-08-11T09:04:13Z</time>
      </trkpt>
      <trkpt lat="45.75791" lon="4.63112">
        <ele>664</ele>
        <time>2012-08-11T09:04:17Z</time>
      </trkpt>
      <trkpt lat="45.75801" lon="4.63116">
        <ele>665</ele>
        <time>2012-08-11T09:04:21Z</time>
      </trkpt>
      <trkpt lat="45.75827" lon="4.63131">
        <ele>664</ele>
        <time>2012-08-11T09:04:32Z</time>
      </trkpt>
      <trkpt lat="45.75846" lon="4.63155">
        <ele>672</ele>
        <time>2012-08-11T09:04:42Z</time>
      </trkpt>
      <trkpt lat="45.75867" lon="4.63185">
        <ele>665</ele>
        <time>2012-08-11T09:04:52Z</time>
      </trkpt>
      <trkpt lat="45.75888" lon="4.63206">
        <ele>666</ele>
        <time>2012-08-11T09:05:02Z</time>
      </trkpt>
      <trkpt lat="45.759" lon="4.63213">
        <ele>666</ele>
        <time>2012-08-11T09:05:10Z</time>
      </trkpt>
      <trkpt lat="45.75909" lon="4.63221">
        <ele>666</ele>
        <time>2012-08-11T09:05:15Z</time>
      </trkpt>
      <trkpt lat="45.75916" lon="4.63225">
        <ele>666</ele>
        <time>2012-08-11T09:05:19Z</time>
      </trkpt>
      <trkpt lat="45.75936" lon="4.6324">
        <ele>675</ele>
        <time>2012-08-11T09:05:32Z</time>
      </trkpt>
      <trkpt lat="45.75949" lon="4.63244">
        <ele>677</ele>
        <time>2012-08-11T09:05:38Z</time>
      </trkpt>
      <trkpt lat="45.75962" lon="4.63246">
        <ele>678</ele>
        <time>2012-08-11T09:05:44Z</time>
      </trkpt>
      <trkpt lat="45.75985" lon="4.63251">
        <ele>668</ele>
        <time>2012-08-11T09:05:54Z</time>
      </trkpt>
      <trkpt lat="45.76019" lon="4.63242">
        <ele>678</ele>
        <time>2012-08-11T09:06:04Z</time>
      </trkpt>
      <trkpt lat="45.76037" lon="4.63225">
        <ele>680</ele>
        <time>2012-08-11T09:06:13Z</time>
      </trkpt>
      <trkpt lat="45.76056" lon="4.63199">
        <ele>682</ele>
        <time>2012-08-11T09:06:24Z</time>
      </trkpt>
      <trkpt lat="45.76075" lon="4.63175">
        <ele>684</ele>
        <time>2012-08-11T09:06:35Z</time>
      </trkpt>
      <trkpt lat="45.76085" lon="4.63145">
        <ele>691</ele>
        <time>2012-08-11T09:06:45Z</time>
      </trkpt>
      <trkpt lat="45.761" lon="4.63124">
        <ele>695</ele>
        <time>2012-08-11T09:06:54Z</time>
      </trkpt>
      <trkpt lat="45.76107" lon="4.63104">
        <ele>697</ele>
        <time>2012-08-11T09:07:03Z</time>
      </trkpt>
      <trkpt lat="45.76117" lon="4.63089">
        <ele>697</ele>
        <time>2012-08-11T09:07:11Z</time>
      </trkpt>
      <trkpt lat="45.76129" lon="4.63073">
        <ele>703</ele>
        <time>2012-08-11T09:07:23Z</time>
      </trkpt>
      <trkpt lat="45.76127" lon="4.63046">
        <ele>704</ele>
        <time>2012-08-11T09:07:29Z</time>
      </trkpt>
      <trkpt lat="45.7613" lon="4.63043">
        <ele>704</ele>
        <time>2012-08-11T09:07:32Z</time>
      </trkpt>
      <trkpt lat="45.76162" lon="4.63057">
        <ele>702</ele>
        <time>2012-08-11T09:07:42Z</time>
      </trkpt>
      <trkpt lat="45.76182" lon="4.63075">
        <ele>703</ele>
        <time>2012-08-11T09:07:52Z</time>
      </trkpt>
      <trkpt lat="45.76192" lon="4.63093">
        <ele>702</ele>
        <time>2012-08-11T09:08:01Z</time>
      </trkpt>
      <trkpt lat="45.76195" lon="4.63096">
        <ele>703</ele>
        <time>2012-08-11T09:08:04Z</time>
      </trkpt>
      <trkpt lat="45.76196" lon="4.63124">
        <ele>703</ele>
        <time>2012-08-11T09:08:13Z</time>
      </trkpt>
      <trkpt lat="45.76196" lon="4.6316">
        <ele>701</ele>
        <time>2012-08-11T09:08:21Z</time>
      </trkpt>
      <trkpt lat="45.76196" lon="4.63208">
        <ele>698</ele>
        <time>2012-08-11T09:08:32Z</time>
      </trkpt>
      <trkpt lat="45.76196" lon="4.63255">
        <ele>693</ele>
        <time>2012-08-11T09:08:43Z</time>
      </trkpt>
      <trkpt lat="45.76204" lon="4.63297">
        <ele>695</ele>
        <time>2012-08-11T09:08:54Z</time>
      </trkpt>
      <trkpt lat="45.76206" lon="4.63299">
        <ele>695</ele>
        <time>2012-08-11T09:08:55Z</time>
      </trkpt>
      <trkpt lat="45.76209" lon="4.63301">
        <ele>695</ele>
        <time>2012-08-11T09:08:57Z</time>
      </trkpt>
      <trkpt lat="45.7621" lon="4.63308">
        <ele>696</ele>
        <time>2012-08-11T09:09:01Z</time>
      </trkpt>
      <trkpt lat="45.76222" lon="4.63307">
        <ele>698</ele>
        <time>2012-08-11T09:09:09Z</time>
      </trkpt>
      <trkpt lat="45.76225" lon="4.63288">
        <ele>698</ele>
        <time>2012-08-11T09:09:16Z</time>
      </trkpt>
      <trkpt lat="45.76225" lon="4.63267">
        <ele>700</ele>
        <time>2012-08-11T09:09:25Z</time>
      </trkpt>
      <trkpt lat="45.76214" lon="4.63238">
        <ele>701</ele>
        <time>2012-08-11T09:09:35Z</time>
      </trkpt>
      <trkpt lat="45.76215" lon="4.63204">
        <ele>701</ele>
        <time>2012-08-11T09:09:45Z</time>
      </trkpt>
      <trkpt lat="45.76218" lon="4.63184">
        <ele>703</ele>
        <time>2012-08-11T09:09:53Z</time>
      </trkpt>
      <trkpt lat="45.76222" lon="4.63179">
        <ele>704</ele>
        <time>2012-08-11T09:10:03Z</time>
      </trkpt>
      <trkpt lat="45.76224" lon="4.63178">
        <ele>704</ele>
        <time>2012-08-11T09:10:27Z</time>
      </trkpt>
      <trkpt lat="45.76226" lon="4.63167">
        <ele>705</ele>
        <time>2012-08-11T09:10:32Z</time>
      </trkpt>
      <trkpt lat="45.76228" lon="4.63137">
        <ele>707</ele>
        <time>2012-08-11T09:10:43Z</time>
      </trkpt>
      <trkpt lat="45.7623" lon="4.63103">
        <ele>708</ele>
        <time>2012-08-11T09:10:55Z</time>
      </trkpt>
      <trkpt lat="45.76235" lon="4.63075">
        <ele>712</ele>
        <time>2012-08-11T09:11:03Z</time>
      </trkpt>
      <trkpt lat="45.76243" lon="4.63049">
        <ele>712</ele>
        <time>2012-08-11T09:11:12Z</time>
      </trkpt>
      <trkpt lat="45.76252" lon="4.63012">
        <ele>720</ele>
        <time>2012-08-11T09:11:23Z</time>
      </trkpt>
      <trkpt lat="45.7626" lon="4.62968">
        <ele>722</ele>
        <time>2012-08-11T09:11:34Z</time>
      </trkpt>
      <trkpt lat="45.76269" lon="4.6293">
        <ele>723</ele>
        <time>2012-08-11T09:11:44Z</time>
      </trkpt>
      <trkpt lat="45.76278" lon="4.6289">
        <ele>723</ele>
        <time>2012-08-11T09:11:56Z</time>
      </trkpt>
      <trkpt lat="45.76281" lon="4.62877">
        <ele>723</ele>
        <time>2012-08-11T09:12:05Z</time>
      </trkpt>
      <trkpt lat="45.76278" lon="4.62883">
        <ele>723</ele>
        <time>2012-08-11T09:15:04Z</time>
      </trkpt>
      <trkpt lat="45.76277" lon="4.62894">
        <ele>723</ele>
        <time>2012-08-11T09:15:17Z</time>
      </trkpt>
      <trkpt lat="45.76271" lon="4.62923">
        <ele>723</ele>
        <time>2012-08-11T09:15:25Z</time>
      </trkpt>
      <trkpt lat="45.76264" lon="4.62955">
        <ele>722</ele>
        <time>2012-08-11T09:15:30Z</time>
      </trkpt>
      <trkpt lat="45.76243" lon="4.63049">
        <ele>712</ele>
        <time>2012-08-11T09:15:40Z</time>
      </trkpt>
      <trkpt lat="45.76226" lon="4.63154">
        <ele>707</ele>
        <time>2012-08-11T09:15:49Z</time>
      </trkpt>
      <trkpt lat="45.76233" lon="4.63259">
        <ele>703</ele>
        <time>2012-08-11T09:15:58Z</time>
      </trkpt>
      <trkpt lat="45.7622" lon="4.63307">
        <ele>697</ele>
        <time>2012-08-11T09:16:03Z</time>
      </trkpt>
      <trkpt lat="45.7622" lon="4.6331">
        <ele>697</ele>
        <time>2012-08-11T09:16:07Z</time>
      </trkpt>
      <trkpt lat="45.7622" lon="4.6331">
        <ele>697</ele>
        <time>2012-08-11T09:16:23Z</time>
      </trkpt>
      <trkpt lat="45.7622" lon="4.6331">
        <ele>697</ele>
        <time>2012-08-11T09:19:22Z</time>
      </trkpt>
      <trkpt lat="45.7622" lon="4.6331">
        <ele>697</ele>
        <time>2012-08-11T09:19:56Z</time>
      </trkpt>
      <trkpt lat="45.76234" lon="4.63291">
        <ele>700</ele>
        <time>2012-08-11T09:20:04Z</time>
      </trkpt>
      <trkpt lat="45.76231" lon="4.63249">
        <ele>705</ele>
        <time>2012-08-11T09:20:14Z</time>
      </trkpt>
      <trkpt lat="45.76223" lon="4.63201">
        <ele>703</ele>
        <time>2012-08-11T09:20:26Z</time>
      </trkpt>
      <trkpt lat="45.7622" lon="4.63166">
        <ele>706</ele>
        <time>2012-08-11T09:20:36Z</time>
      </trkpt>
      <trkpt lat="45.76223" lon="4.63123">
        <ele>706</ele>
        <time>2012-08-11T09:20:47Z</time>
      </trkpt>
      <trkpt lat="45.76231" lon="4.63089">
        <ele>709</ele>
        <time>2012-08-11T09:20:56Z</time>
      </trkpt>
      <trkpt lat="45.76235" lon="4.63059">
        <ele>711</ele>
        <time>2012-08-11T09:21:06Z</time>
      </trkpt>
      <trkpt lat="45.76238" lon="4.63033">
        <ele>712</ele>
        <time>2012-08-11T09:21:16Z</time>
      </trkpt>
      <trkpt lat="45.76244" lon="4.63005">
        <ele>716</ele>
        <time>2012-08-11T09:21:25Z</time>
      </trkpt>
      <trkpt lat="45.76254" lon="4.62974">
        <ele>722</ele>
        <time>2012-08-11T09:21:34Z</time>
      </trkpt>
      <trkpt lat="45.76263" lon="4.62938">
        <ele>723</ele>
        <time>2012-08-11T09:21:46Z</time>
      </trkpt>
      <trkpt lat="45.7627" lon="4.62904">
        <ele>723</ele>
        <time>2012-08-11T09:21:57Z</time>
      </trkpt>
      <trkpt lat="45.76283" lon="4.62878">
        <ele>723</ele>
        <time>2012-08-11T09:22:09Z</time>
      </trkpt>
      <trkpt lat="45.76278" lon="4.62872">
        <ele>724</ele>
        <time>2012-08-11T09:22:23Z</time>
      </trkpt>
      <trkpt lat="45.76276" lon="4.62877">
        <ele>724</ele>
        <time>2012-08-11T09:22:59Z</time>
      </trkpt>
      <trkpt lat="45.76273" lon="4.62871">
        <ele>724</ele>
        <time>2012-08-11T09:24:19Z</time>
      </trkpt>
      <trkpt lat="45.7625" lon="4.62867">
        <ele>726</ele>
        <time>2012-08-11T09:24:27Z</time>
      </trkpt>
      <trkpt lat="45.76225" lon="4.62868">
        <ele>726</ele>
        <time>2012-08-11T09:24:35Z</time>
      </trkpt>
      <trkpt lat="45.76225" lon="4.62868">
        <ele>726</ele>
        <time>2012-08-11T09:24:40Z</time>
      </trkpt>
      <trkpt lat="45.76186" lon="4.62848">
        <ele>727</ele>
        <time>2012-08-11T09:24:53Z</time>
      </trkpt>
      <trkpt lat="45.7617" lon="4.62816">
        <ele>733</ele>
        <time>2012-08-11T09:25:01Z</time>
      </trkpt>
      <trkpt lat="45.76161" lon="4.62799">
        <ele>738</ele>
        <time>2012-08-11T09:25:09Z</time>
      </trkpt>
      <trkpt lat="45.76153" lon="4.62785">
        <ele>740</ele>
        <time>2012-08-11T09:25:18Z</time>
      </trkpt>
      <trkpt lat="45.7615" lon="4.6278">
        <ele>740</ele>
        <time>2012-08-11T09:25:20Z</time>
      </trkpt>
      <trkpt lat="45.76147" lon="4.62773">
        <ele>741</ele>
        <time>2012-08-11T09:25:29Z</time>
      </trkpt>
      <trkpt lat="45.76142" lon="4.62768">
        <ele>741</ele>
        <time>2012-08-11T09:25:32Z</time>
      </trkpt>
      <trkpt lat="45.76108" lon="4.62799">
        <ele>740</ele>
        <time>2012-08-11T09:25:42Z</time>
      </trkpt>
      <trkpt lat="45.76087" lon="4.62812">
        <ele>740</ele>
        <time>2012-08-11T09:25:46Z</time>
      </trkpt>
      <trkpt lat="45.76077" lon="4.62821">
        <ele>743</ele>
        <time>2012-08-11T09:25:55Z</time>
      </trkpt>
      <trkpt lat="45.76067" lon="4.62826">
        <ele>745</ele>
        <time>2012-08-11T09:26:19Z</time>
      </trkpt>
      <trkpt lat="45.76069" lon="4.62822">
        <ele>745</ele>
        <time>2012-08-11T09:26:24Z</time>
      </trkpt>
      <trkpt lat="45.76071" lon="4.62818">
        <ele>745</ele>
        <time>2012-08-11T09:26:26Z</time>
      </trkpt>
      <trkpt lat="45.76084" lon="4.62792">
        <ele>742</ele>
        <time>2012-08-11T09:26:34Z</time>
      </trkpt>
      <trkpt lat="45.76084" lon="4.62783">
        <ele>743</ele>
        <time>2012-08-11T09:26:37Z</time>
      </trkpt>
      <trkpt lat="45.76078" lon="4.62746">
        <ele>752</ele>
        <time>2012-08-11T09:26:43Z</time>
      </trkpt>
      <trkpt lat="45.76078" lon="4.62719">
        <ele>755</ele>
        <time>2012-08-11T09:26:50Z</time>
      </trkpt>
      <trkpt lat="45.76081" lon="4.62705">
        <ele>756</ele>
        <time>2012-08-11T09:26:59Z</time>
      </trkpt>
      <trkpt lat="45.76096" lon="4.62694">
        <ele>751</ele>
        <time>2012-08-11T09:27:10Z</time>
      </trkpt>
      <trkpt lat="45.76113" lon="4.6267">
        <ele>750</ele>
        <time>2012-08-11T09:27:20Z</time>
      </trkpt>
      <trkpt lat="45.7611" lon="4.62663">
        <ele>751</ele>
        <time>2012-08-11T09:28:39Z</time>
      </trkpt>
      <trkpt lat="45.76087" lon="4.62658">
        <ele>754</ele>
        <time>2012-08-11T09:28:50Z</time>
      </trkpt>
      <trkpt lat="45.76062" lon="4.62652">
        <ele>758</ele>
        <time>2012-08-11T09:28:56Z</time>
      </trkpt>
      <trkpt lat="45.76045" lon="4.62676">
        <ele>758</ele>
        <time>2012-08-11T09:29:04Z</time>
      </trkpt>
      <trkpt lat="45.76033" lon="4.62694">
        <ele>758</ele>
        <time>2012-08-11T09:29:09Z</time>
      </trkpt>
      <trkpt lat="45.76003" lon="4.62746">
        <ele>760</ele>
        <time>2012-08-11T09:29:18Z</time>
      </trkpt>
      <trkpt lat="45.75988" lon="4.62776">
        <ele>760</ele>
        <time>2012-08-11T09:29:25Z</time>
      </trkpt>
      <trkpt lat="45.75961" lon="4.62797">
        <ele>760</ele>
        <time>2012-08-11T09:29:34Z</time>
      </trkpt>
      <trkpt lat="45.75936" lon="4.62808">
        <ele>760</ele>
        <time>2012-08-11T09:29:43Z</time>
      </trkpt>
      <trkpt lat="45.75914" lon="4.62814">
        <ele>763</ele>
        <time>2012-08-11T09:29:52Z</time>
      </trkpt>
      <trkpt lat="45.75898" lon="4.62813">
        <ele>763</ele>
        <time>2012-08-11T09:30:02Z</time>
      </trkpt>
      <trkpt lat="45.75876" lon="4.62808">
        <ele>764</ele>
        <time>2012-08-11T09:30:13Z</time>
      </trkpt>
      <trkpt lat="45.75856" lon="4.62806">
        <ele>764</ele>
        <time>2012-08-11T09:30:21Z</time>
      </trkpt>
      <trkpt lat="45.75825" lon="4.62798">
        <ele>763</ele>
        <time>2012-08-11T09:30:33Z</time>
      </trkpt>
      <trkpt lat="45.7582" lon="4.62796">
        <ele>763</ele>
        <time>2012-08-11T09:30:35Z</time>
      </trkpt>
      <trkpt lat="45.75809" lon="4.6279">
        <ele>763</ele>
        <time>2012-08-11T09:30:39Z</time>
      </trkpt>
      <trkpt lat="45.75799" lon="4.62784">
        <ele>763</ele>
        <time>2012-08-11T09:30:42Z</time>
      </trkpt>
      <trkpt lat="45.75788" lon="4.62773">
        <ele>763</ele>
        <time>2012-08-11T09:30:48Z</time>
      </trkpt>
      <trkpt lat="45.75761" lon="4.62752">
        <ele>765</ele>
        <time>2012-08-11T09:30:58Z</time>
      </trkpt>
      <trkpt lat="45.75732" lon="4.62725">
        <ele>761</ele>
        <time>2012-08-11T09:31:06Z</time>
      </trkpt>
      <trkpt lat="45.75722" lon="4.62681">
        <ele>763</ele>
        <time>2012-08-11T09:31:17Z</time>
      </trkpt>
      <trkpt lat="45.75717" lon="4.62632">
        <ele>767</ele>
        <time>2012-08-11T09:31:28Z</time>
      </trkpt>
      <trkpt lat="45.75713" lon="4.62585">
        <ele>767</ele>
        <time>2012-08-11T09:31:38Z</time>
      </trkpt>
      <trkpt lat="45.7571" lon="4.62517">
        <ele>770</ele>
        <time>2012-08-11T09:31:52Z</time>
      </trkpt>
      <trkpt lat="45.75706" lon="4.62453">
        <ele>771</ele>
        <time>2012-08-11T09:32:04Z</time>
      </trkpt>
      <trkpt lat="45.75702" lon="4.62403">
        <ele>771</ele>
        <time>2012-08-11T09:32:13Z</time>
      </trkpt>
      <trkpt lat="45.75702" lon="4.62389">
        <ele>771</ele>
        <time>2012-08-11T09:32:21Z</time>
      </trkpt>
      <trkpt lat="45.75701" lon="4.62377">
        <ele>771</ele>
        <time>2012-08-11T09:32:29Z</time>
      </trkpt>
      <trkpt lat="45.75701" lon="4.62377">
        <ele>771</ele>
        <time>2012-08-11T09:33:06Z</time>
      </trkpt>
      <trkpt lat="45.75699" lon="4.6234">
        <ele>770</ele>
        <time>2012-08-11T09:33:14Z</time>
      </trkpt>
      <trkpt lat="45.75699" lon="4.62329">
        <ele>768</ele>
        <time>2012-08-11T09:33:16Z</time>
      </trkpt>
      <trkpt lat="45.75693" lon="4.62289">
        <ele>768</ele>
        <time>2012-08-11T09:33:24Z</time>
      </trkpt>
      <trkpt lat="45.75688" lon="4.62251">
        <ele>767</ele>
        <time>2012-08-11T09:33:32Z</time>
      </trkpt>
      <trkpt lat="45.75684" lon="4.62222">
        <ele>765</ele>
        <time>2012-08-11T09:33:37Z</time>
      </trkpt>
      <trkpt lat="45.75683" lon="4.6215">
        <ele>765</ele>
        <time>2012-08-11T09:33:44Z</time>
      </trkpt>
      <trkpt lat="45.7568" lon="4.62115">
        <ele>765</ele>
        <time>2012-08-11T09:33:51Z</time>
      </trkpt>
      <trkpt lat="45.7568" lon="4.62115">
        <ele>765</ele>
        <time>2012-08-11T09:34:10Z</time>
      </trkpt>
      <trkpt lat="45.75677" lon="4.62087">
        <ele>767</ele>
        <time>2012-08-11T09:34:17Z</time>
      </trkpt>
      <trkpt lat="45.75675" lon="4.62068">
        <ele>766</ele>
        <time>2012-08-11T09:34:19Z</time>
      </trkpt>
      <trkpt lat="45.75669" lon="4.62014">
        <ele>768</ele>
        <time>2012-08-11T09:34:25Z</time>
      </trkpt>
      <trkpt lat="45.75668" lon="4.62002">
        <ele>770</ele>
        <time>2012-08-11T09:34:26Z</time>
      </trkpt>
      <trkpt lat="45.75668" lon="4.6196">
        <ele>764</ele>
        <time>2012-08-11T09:34:30Z</time>
      </trkpt>
      <trkpt lat="45.75663" lon="4.61932">
        <ele>765</ele>
        <time>2012-08-11T09:34:33Z</time>
      </trkpt>
      <trkpt lat="45.75645" lon="4.6188">
        <ele>759</ele>
        <time>2012-08-11T09:34:41Z</time>
      </trkpt>
      <trkpt lat="45.75633" lon="4.61839">
        <ele>757</ele>
        <time>2012-08-11T09:34:48Z</time>
      </trkpt>
      <trkpt lat="45.75627" lon="4.61807">
        <ele>756</ele>
        <time>2012-08-11T09:34:55Z</time>
      </trkpt>
      <trkpt lat="45.75625" lon="4.61788">
        <ele>756</ele>
        <time>2012-08-11T09:35:02Z</time>
      </trkpt>
      <trkpt lat="45.75594" lon="4.61791">
        <ele>756</ele>
        <time>2012-08-11T09:35:10Z</time>
      </trkpt>
      <trkpt lat="45.75587" lon="4.61784">
        <ele>757</ele>
        <time>2012-08-11T09:35:15Z</time>
      </trkpt>
      <trkpt lat="45.75585" lon="4.61781">
        <ele>757</ele>
        <time>2012-08-11T09:35:23Z</time>
      </trkpt>
      <trkpt lat="45.75573" lon="4.61764">
        <ele>756</ele>
        <time>2012-08-11T09:35:34Z</time>
      </trkpt>
      <trkpt lat="45.75621" lon="4.61726">
        <ele>758</ele>
        <time>2012-08-11T09:35:45Z</time>
      </trkpt>
      <trkpt lat="45.75621" lon="4.61705">
        <ele>758</ele>
        <time>2012-08-11T09:35:56Z</time>
      </trkpt>
      <trkpt lat="45.75621" lon="4.61689">
        <ele>758</ele>
        <time>2012-08-11T09:36:01Z</time>
      </trkpt>
      <trkpt lat="45.75621" lon="4.61681">
        <ele>759</ele>
        <time>2012-08-11T09:36:05Z</time>
      </trkpt>
      <trkpt lat="45.75621" lon="4.61672">
        <ele>759</ele>
        <time>2012-08-11T09:36:12Z</time>
      </trkpt>
      <trkpt lat="45.75621" lon="4.61662">
        <ele>758</ele>
        <time>2012-08-11T09:36:14Z</time>
      </trkpt>
      <trkpt lat="45.75621" lon="4.61662">
        <ele>758</ele>
        <time>2012-08-11T09:36:21Z</time>
      </trkpt>
      <trkpt lat="45.75621" lon="4.61662">
        <ele>758</ele>
        <time>2012-08-11T09:36:24Z</time>
      </trkpt>
      <trkpt lat="45.75559" lon="4.61615">
        <ele>768</ele>
        <time>2012-08-11T09:36:37Z</time>
      </trkpt>
      <trkpt lat="45.75559" lon="4.61613">
        <ele>768</ele>
        <time>2012-08-11T09:36:38Z</time>
      </trkpt>
      <trkpt lat="45.75554" lon="4.61591">
        <ele>767</ele>
        <time>2012-08-11T09:36:45Z</time>
      </trkpt>
      <trkpt lat="45.75545" lon="4.61566">
        <ele>767</ele>
        <time>2012-08-11T09:36:53Z</time>
      </trkpt>
      <trkpt lat="45.75541" lon="4.61559">
        <ele>767</ele>
        <time>2012-08-11T09:36:56Z</time>
      </trkpt>
      <trkpt lat="45.75526" lon="4.61512">
        <ele>768</ele>
        <time>2012-08-11T09:37:06Z</time>
      </trkpt>
      <trkpt lat="45.75519" lon="4.61486">
        <ele>766</ele>
        <time>2012-08-11T09:37:13Z</time>
      </trkpt>
      <trkpt lat="45.75518" lon="4.61478">
        <ele>765</ele>
        <time>2012-08-11T09:37:15Z</time>
      </trkpt>
      <trkpt lat="45.75506" lon="4.61458">
        <ele>764</ele>
        <time>2012-08-11T09:37:22Z</time>
      </trkpt>
      <trkpt lat="45.75476" lon="4.61432">
        <ele>770</ele>
        <time>2012-08-11T09:37:32Z</time>
      </trkpt>
      <trkpt lat="45.7545" lon="4.61422">
        <ele>772</ele>
        <time>2012-08-11T09:37:40Z</time>
      </trkpt>
      <trkpt lat="45.7542" lon="4.614">
        <ele>768</ele>
        <time>2012-08-11T09:37:49Z</time>
      </trkpt>
      <trkpt lat="45.75384" lon="4.61379">
        <ele>772</ele>
        <time>2012-08-11T09:37:58Z</time>
      </trkpt>
      <trkpt lat="45.75352" lon="4.61362">
        <ele>773</ele>
        <time>2012-08-11T09:38:05Z</time>
      </trkpt>
      <trkpt lat="45.75324" lon="4.61355">
        <ele>776</ele>
        <time>2012-08-11T09:38:15Z</time>
      </trkpt>
      <trkpt lat="45.75309" lon="4.61357">
        <ele>776</ele>
        <time>2012-08-11T09:38:23Z</time>
      </trkpt>
      <trkpt lat="45.75301" lon="4.61357">
        <ele>776</ele>
        <time>2012-08-11T09:38:28Z</time>
      </trkpt>
      <trkpt lat="45.7528" lon="4.6138">
        <ele>777</ele>
        <time>2012-08-11T09:38:37Z</time>
      </trkpt>
      <trkpt lat="45.75272" lon="4.61416">
        <ele>777</ele>
        <time>2012-08-11T09:40:06Z</time>
      </trkpt>
      <trkpt lat="45.75274" lon="4.6146">
        <ele>781</ele>
        <time>2012-08-11T09:40:11Z</time>
      </trkpt>
      <trkpt lat="45.75276" lon="4.61494">
        <ele>781</ele>
        <time>2012-08-11T09:40:19Z</time>
      </trkpt>
      <trkpt lat="45.75283" lon="4.61523">
        <ele>781</ele>
        <time>2012-08-11T09:40:28Z</time>
      </trkpt>
      <trkpt lat="45.75287" lon="4.61541">
        <ele>781</ele>
        <time>2012-08-11T09:40:39Z</time>
      </trkpt>
      <trkpt lat="45.75287" lon="4.61541">
        <ele>781</ele>
        <time>2012-08-11T09:40:53Z</time>
      </trkpt>
      <trkpt lat="45.75287" lon="4.61541">
        <ele>781</ele>
        <time>2012-08-11T09:41:20Z</time>
      </trkpt>
      <trkpt lat="45.75282" lon="4.61583">
        <ele>780</ele>
        <time>2012-08-11T09:41:26Z</time>
      </trkpt>
      <trkpt lat="45.75271" lon="4.61602">
        <ele>776</ele>
        <time>2012-08-11T09:41:29Z</time>
      </trkpt>
      <trkpt lat="45.75254" lon="4.61632">
        <ele>775</ele>
        <time>2012-08-11T09:41:32Z</time>
      </trkpt>
      <trkpt lat="45.75238" lon="4.61651">
        <ele>768</ele>
        <time>2012-08-11T09:41:34Z</time>
      </trkpt>
      <trkpt lat="45.75222" lon="4.61689">
        <ele>765</ele>
        <time>2012-08-11T09:41:39Z</time>
      </trkpt>
      <trkpt lat="45.75213" lon="4.61711">
        <ele>763</ele>
        <time>2012-08-11T09:41:42Z</time>
      </trkpt>
      <trkpt lat="45.75201" lon="4.6173">
        <ele>761</ele>
        <time>2012-08-11T09:41:44Z</time>
      </trkpt>
      <trkpt lat="45.75193" lon="4.61764">
        <ele>757</ele>
        <time>2012-08-11T09:41:48Z</time>
      </trkpt>
      <trkpt lat="45.7517" lon="4.61827">
        <ele>750</ele>
        <time>2012-08-11T09:41:55Z</time>
      </trkpt>
      <trkpt lat="45.75154" lon="4.61865">
        <ele>739</ele>
        <time>2012-08-11T09:42:00Z</time>
      </trkpt>
      <trkpt lat="45.75137" lon="4.61903">
        <ele>735</ele>
        <time>2012-08-11T09:42:04Z</time>
      </trkpt>
      <trkpt lat="45.75131" lon="4.61915">
        <ele>735</ele>
        <time>2012-08-11T09:42:06Z</time>
      </trkpt>
      <trkpt lat="45.75101" lon="4.61956">
        <ele>724</ele>
        <time>2012-08-11T09:42:13Z</time>
      </trkpt>
      <trkpt lat="45.75084" lon="4.61979">
        <ele>721</ele>
        <time>2012-08-11T09:42:17Z</time>
      </trkpt>
      <trkpt lat="45.75059" lon="4.62007">
        <ele>710</ele>
        <time>2012-08-11T09:42:22Z</time>
      </trkpt>
      <trkpt lat="45.75047" lon="4.62026">
        <ele>707</ele>
        <time>2012-08-11T09:42:25Z</time>
      </trkpt>
      <trkpt lat="45.75025" lon="4.62065">
        <ele>704</ele>
        <time>2012-08-11T09:42:30Z</time>
      </trkpt>
      <trkpt lat="45.75004" lon="4.62114">
        <ele>699</ele>
        <time>2012-08-11T09:42:38Z</time>
      </trkpt>
      <trkpt lat="45.74999" lon="4.62124">
        <ele>695</ele>
        <time>2012-08-11T09:42:48Z</time>
      </trkpt>
      <trkpt lat="45.7499" lon="4.6214">
        <ele>695</ele>
        <time>2012-08-11T09:43:16Z</time>
      </trkpt>
      <trkpt lat="45.74977" lon="4.62174">
        <ele>694</ele>
        <time>2012-08-11T09:43:22Z</time>
      </trkpt>
      <trkpt lat="45.74964" lon="4.62229">
        <ele>691</ele>
        <time>2012-08-11T09:43:27Z</time>
      </trkpt>
      <trkpt lat="45.74967" lon="4.62343">
        <ele>678</ele>
        <time>2012-08-11T09:43:34Z</time>
      </trkpt>
      <trkpt lat="45.74955" lon="4.62356">
        <ele>677</ele>
        <time>2012-08-11T09:43:36Z</time>
      </trkpt>
      <trkpt lat="45.74935" lon="4.62377">
        <ele>676</ele>
        <time>2012-08-11T09:43:40Z</time>
      </trkpt>
      <trkpt lat="45.7492" lon="4.62389">
        <ele>676</ele>
        <time>2012-08-11T09:43:44Z</time>
      </trkpt>
      <trkpt lat="45.74893" lon="4.62426">
        <ele>666</ele>
        <time>2012-08-11T09:43:51Z</time>
      </trkpt>
      <trkpt lat="45.74872" lon="4.62474">
        <ele>661</ele>
        <time>2012-08-11T09:43:58Z</time>
      </trkpt>
      <trkpt lat="45.74867" lon="4.62491">
        <ele>660</ele>
        <time>2012-08-11T09:44:00Z</time>
      </trkpt>
      <trkpt lat="45.74853" lon="4.62545">
        <ele>651</ele>
        <time>2012-08-11T09:44:06Z</time>
      </trkpt>
      <trkpt lat="45.74835" lon="4.62593">
        <ele>644</ele>
        <time>2012-08-11T09:44:12Z</time>
      </trkpt>
      <trkpt lat="45.74838" lon="4.62583">
        <ele>647</ele>
        <time>2012-08-11T09:44:18Z</time>
      </trkpt>
      <trkpt lat="45.74838" lon="4.62582">
        <ele>647</ele>
        <time>2012-08-11T09:44:42Z</time>
      </trkpt>
      <trkpt lat="45.74833" lon="4.62574">
        <ele>644</ele>
        <time>2012-08-11T09:44:50Z</time>
      </trkpt>
      <trkpt lat="45.74832" lon="4.62574">
        <ele>644</ele>
        <time>2012-08-11T09:44:51Z</time>
      </trkpt>
      <trkpt lat="45.74826" lon="4.62576">
        <ele>644</ele>
        <time>2012-08-11T09:44:55Z</time>
      </trkpt>
      <trkpt lat="45.74823" lon="4.62565">
        <ele>643</ele>
        <time>2012-08-11T09:45:04Z</time>
      </trkpt>
      <trkpt lat="45.74823" lon="4.62565">
        <ele>643</ele>
        <time>2012-08-11T09:45:05Z</time>
      </trkpt>
      <trkpt lat="45.74769" lon="4.62648">
        <ele>628</ele>
        <time>2012-08-11T09:45:14Z</time>
      </trkpt>
      <trkpt lat="45.74757" lon="4.6267">
        <ele>620</ele>
        <time>2012-08-11T09:45:21Z</time>
      </trkpt>
      <trkpt lat="45.74748" lon="4.62693">
        <ele>605</ele>
        <time>2012-08-11T09:45:27Z</time>
      </trkpt>
      <trkpt lat="45.74737" lon="4.62727">
        <ele>600</ele>
        <time>2012-08-11T09:45:34Z</time>
      </trkpt>
      <trkpt lat="45.74734" lon="4.62734">
        <ele>599</ele>
        <time>2012-08-11T09:45:36Z</time>
      </trkpt>
      <trkpt lat="45.7469" lon="4.62775">
        <ele>584</ele>
        <time>2012-08-11T09:45:43Z</time>
      </trkpt>
      <trkpt lat="45.74692" lon="4.6279">
        <ele>584</ele>
        <time>2012-08-11T09:45:46Z</time>
      </trkpt>
      <trkpt lat="45.74692" lon="4.62799">
        <ele>583</ele>
        <time>2012-08-11T09:45:48Z</time>
      </trkpt>
      <trkpt lat="45.74688" lon="4.62839">
        <ele>575</ele>
        <time>2012-08-11T09:45:55Z</time>
      </trkpt>
      <trkpt lat="45.74686" lon="4.62847">
        <ele>575</ele>
        <time>2012-08-11T09:45:57Z</time>
      </trkpt>
      <trkpt lat="45.74681" lon="4.62887">
        <ele>573</ele>
        <time>2012-08-11T09:46:02Z</time>
      </trkpt>
      <trkpt lat="45.74682" lon="4.62913">
        <ele>571</ele>
        <time>2012-08-11T09:46:08Z</time>
      </trkpt>
      <trkpt lat="45.74682" lon="4.62913">
        <ele>571</ele>
        <time>2012-08-11T09:46:41Z</time>
      </trkpt>
      <trkpt lat="45.74683" lon="4.62926">
        <ele>564</ele>
        <time>2012-08-11T09:46:50Z</time>
      </trkpt>
      <trkpt lat="45.74683" lon="4.62926">
        <ele>564</ele>
        <time>2012-08-11T09:46:58Z</time>
      </trkpt>
      <trkpt lat="45.74672" lon="4.62939">
        <ele>563</ele>
        <time>2012-08-11T09:47:22Z</time>
      </trkpt>
      <trkpt lat="45.74667" lon="4.62982">
        <ele>559</ele>
        <time>2012-08-11T09:47:28Z</time>
      </trkpt>
      <trkpt lat="45.74647" lon="4.63035">
        <ele>551</ele>
        <time>2012-08-11T09:47:33Z</time>
      </trkpt>
      <trkpt lat="45.74607" lon="4.63096">
        <ele>543</ele>
        <time>2012-08-11T09:47:40Z</time>
      </trkpt>
      <trkpt lat="45.74586" lon="4.63143">
        <ele>539</ele>
        <time>2012-08-11T09:47:46Z</time>
      </trkpt>
      <trkpt lat="45.7458" lon="4.63144">
        <ele>536</ele>
        <time>2012-08-11T09:47:47Z</time>
      </trkpt>
      <trkpt lat="45.74556" lon="4.63177">
        <ele>530</ele>
        <time>2012-08-11T09:47:52Z</time>
      </trkpt>
      <trkpt lat="45.74521" lon="4.63251">
        <ele>520</ele>
        <time>2012-08-11T09:47:58Z</time>
      </trkpt>
      <trkpt lat="45.7449" lon="4.63295">
        <ele>512</ele>
        <time>2012-08-11T09:48:02Z</time>
      </trkpt>
      <trkpt lat="45.74448" lon="4.63312">
        <ele>507</ele>
        <time>2012-08-11T09:48:07Z</time>
      </trkpt>
      <trkpt lat="45.74419" lon="4.63261">
        <ele>504</ele>
        <time>2012-08-11T09:48:12Z</time>
      </trkpt>
      <trkpt lat="45.74401" lon="4.63213">
        <ele>495</ele>
        <time>2012-08-11T09:48:17Z</time>
      </trkpt>
      <trkpt lat="45.74396" lon="4.63205">
        <ele>495</ele>
        <time>2012-08-11T09:48:23Z</time>
      </trkpt>
      <trkpt lat="45.74391" lon="4.63208">
        <ele>494</ele>
        <time>2012-08-11T09:48:27Z</time>
      </trkpt>
      <trkpt lat="45.74391" lon="4.63208">
        <ele>494</ele>
        <time>2012-08-11T09:48:32Z</time>
      </trkpt>
      <trkpt lat="45.7438" lon="4.63229">
        <ele>493</ele>
        <time>2012-08-11T09:48:41Z</time>
      </trkpt>
      <trkpt lat="45.74363" lon="4.63266">
        <ele>490</ele>
        <time>2012-08-11T09:48:50Z</time>
      </trkpt>
      <trkpt lat="45.74362" lon="4.63269">
        <ele>490</ele>
        <time>2012-08-11T09:49:01Z</time>
      </trkpt>
      <trkpt lat="45.74368" lon="4.63252">
        <ele>491</ele>
        <time>2012-08-11T09:49:11Z</time>
      </trkpt>
      <trkpt lat="45.7437" lon="4.63248">
        <ele>492</ele>
        <time>2012-08-11T09:49:17Z</time>
      </trkpt>
      <trkpt lat="45.74366" lon="4.63257">
        <ele>490</ele>
        <time>2012-08-11T09:49:19Z</time>
      </trkpt>
      <trkpt lat="45.74364" lon="4.63282">
        <ele>490</ele>
        <time>2012-08-11T09:49:24Z</time>
      </trkpt>
      <trkpt lat="45.74377" lon="4.63304">
        <ele>491</ele>
        <time>2012-08-11T09:49:28Z</time>
      </trkpt>
      <trkpt lat="45.74392" lon="4.63326">
        <ele>492</ele>
        <time>2012-08-11T09:49:32Z</time>
      </trkpt>
      <trkpt lat="45.74404" lon="4.63371">
        <ele>490</ele>
        <time>2012-08-11T09:49:37Z</time>
      </trkpt>
      <trkpt lat="45.74406" lon="4.63408">
        <ele>489</ele>
        <time>2012-08-11T09:49:40Z</time>
      </trkpt>
      <trkpt lat="45.74404" lon="4.63458">
        <ele>490</ele>
        <time>2012-08-11T09:49:44Z</time>
      </trkpt>
      <trkpt lat="45.74374" lon="4.63466">
        <ele>490</ele>
        <time>2012-08-11T09:49:48Z</time>
      </trkpt>
      <trkpt lat="45.74361" lon="4.63461">
        <ele>490</ele>
        <time>2012-08-11T09:49:50Z</time>
      </trkpt>
      <trkpt lat="45.74339" lon="4.6345">
        <ele>489</ele>
        <time>2012-08-11T09:49:57Z</time>
      </trkpt>
      <trkpt lat="45.74324" lon="4.63449">
        <ele>484</ele>
        <time>2012-08-11T09:50:03Z</time>
      </trkpt>
      <trkpt lat="45.74317" lon="4.6346">
        <ele>484</ele>
        <time>2012-08-11T09:50:07Z</time>
      </trkpt>
      <trkpt lat="45.74305" lon="4.63492">
        <ele>485</ele>
        <time>2012-08-11T09:50:18Z</time>
      </trkpt>
      <trkpt lat="45.74284" lon="4.63534">
        <ele>490</ele>
        <time>2012-08-11T09:50:30Z</time>
      </trkpt>
      <trkpt lat="45.74269" lon="4.63566">
        <ele>491</ele>
        <time>2012-08-11T09:50:40Z</time>
      </trkpt>
      <trkpt lat="45.74251" lon="4.63606">
        <ele>497</ele>
        <time>2012-08-11T09:50:51Z</time>
      </trkpt>
      <trkpt lat="45.74228" lon="4.6367">
        <ele>493</ele>
        <time>2012-08-11T09:51:04Z</time>
      </trkpt>
      <trkpt lat="45.74219" lon="4.63699">
        <ele>490</ele>
        <time>2012-08-11T09:51:09Z</time>
      </trkpt>
      <trkpt lat="45.74209" lon="4.63721">
        <ele>489</ele>
        <time>2012-08-11T09:51:13Z</time>
      </trkpt>
      <trkpt lat="45.74197" lon="4.63741">
        <ele>487</ele>
        <time>2012-08-11T09:51:16Z</time>
      </trkpt>
      <trkpt lat="45.74187" lon="4.63803">
        <ele>489</ele>
        <time>2012-08-11T09:51:22Z</time>
      </trkpt>
      <trkpt lat="45.74186" lon="4.63861">
        <ele>488</ele>
        <time>2012-08-11T09:51:27Z</time>
      </trkpt>
      <trkpt lat="45.74183" lon="4.63885">
        <ele>487</ele>
        <time>2012-08-11T09:51:29Z</time>
      </trkpt>
      <trkpt lat="45.74172" lon="4.6392">
        <ele>479</ele>
        <time>2012-08-11T09:51:32Z</time>
      </trkpt>
      <trkpt lat="45.74158" lon="4.63999">
        <ele>471</ele>
        <time>2012-08-11T09:51:39Z</time>
      </trkpt>
      <trkpt lat="45.74152" lon="4.64006">
        <ele>470</ele>
        <time>2012-08-11T09:51:40Z</time>
      </trkpt>
      <trkpt lat="45.74135" lon="4.64026">
        <ele>465</ele>
        <time>2012-08-11T09:51:43Z</time>
      </trkpt>
      <trkpt lat="45.74124" lon="4.6408">
        <ele>464</ele>
        <time>2012-08-11T09:51:49Z</time>
      </trkpt>
      <trkpt lat="45.74128" lon="4.64108">
        <ele>464</ele>
        <time>2012-08-11T09:51:51Z</time>
      </trkpt>
      <trkpt lat="45.74115" lon="4.6414">
        <ele>463</ele>
        <time>2012-08-11T09:51:55Z</time>
      </trkpt>
      <trkpt lat="45.74103" lon="4.6416">
        <ele>461</ele>
        <time>2012-08-11T09:51:58Z</time>
      </trkpt>
      <trkpt lat="45.74068" lon="4.64246">
        <ele>458</ele>
        <time>2012-08-11T09:52:08Z</time>
      </trkpt>
      <trkpt lat="45.74056" lon="4.64275">
        <ele>460</ele>
        <time>2012-08-11T09:52:11Z</time>
      </trkpt>
      <trkpt lat="45.74024" lon="4.64355">
        <ele>462</ele>
        <time>2012-08-11T09:52:20Z</time>
      </trkpt>
      <trkpt lat="45.7402" lon="4.64372">
        <ele>462</ele>
        <time>2012-08-11T09:52:26Z</time>
      </trkpt>
      <trkpt lat="45.7401" lon="4.64395">
        <ele>460</ele>
        <time>2012-08-11T09:52:27Z</time>
      </trkpt>
      <trkpt lat="45.74007" lon="4.64414">
        <ele>458</ele>
        <time>2012-08-11T09:52:30Z</time>
      </trkpt>
      <trkpt lat="45.73998" lon="4.64448">
        <ele>448</ele>
        <time>2012-08-11T09:52:34Z</time>
      </trkpt>
      <trkpt lat="45.74024" lon="4.6449">
        <ele>456</ele>
        <time>2012-08-11T09:52:40Z</time>
      </trkpt>
      <trkpt lat="45.74038" lon="4.64515">
        <ele>455</ele>
        <time>2012-08-11T09:52:44Z</time>
      </trkpt>
      <trkpt lat="45.74034" lon="4.64536">
        <ele>454</ele>
        <time>2012-08-11T09:52:47Z</time>
      </trkpt>
      <trkpt lat="45.74024" lon="4.64604">
        <ele>452</ele>
        <time>2012-08-11T09:52:54Z</time>
      </trkpt>
      <trkpt lat="45.7402" lon="4.64627">
        <ele>453</ele>
        <time>2012-08-11T09:52:57Z</time>
      </trkpt>
      <trkpt lat="45.74016" lon="4.64671">
        <ele>451</ele>
        <time>2012-08-11T09:53:04Z</time>
      </trkpt>
      <trkpt lat="45.74019" lon="4.64685">
        <ele>453</ele>
        <time>2012-08-11T09:53:11Z</time>
      </trkpt>
      <trkpt lat="45.74019" lon="4.64685">
        <ele>453</ele>
        <time>2012-08-11T09:54:01Z</time>
      </trkpt>
      <trkpt lat="45.74024" lon="4.64707">
        <ele>454</ele>
        <time>2012-08-11T09:54:05Z</time>
      </trkpt>
      <trkpt lat="45.74027" lon="4.6472">
        <ele>454</ele>
        <time>2012-08-11T09:54:07Z</time>
      </trkpt>
      <trkpt lat="45.74006" lon="4.64776">
        <ele>452</ele>
        <time>2012-08-11T09:54:14Z</time>
      </trkpt>
      <trkpt lat="45.73965" lon="4.6482">
        <ele>439</ele>
        <time>2012-08-11T09:54:22Z</time>
      </trkpt>
      <trkpt lat="45.73961" lon="4.64821">
        <ele>438</ele>
        <time>2012-08-11T09:54:23Z</time>
      </trkpt>
      <trkpt lat="45.73938" lon="4.64874">
        <ele>432</ele>
        <time>2012-08-11T09:54:25Z</time>
      </trkpt>
      <trkpt lat="45.73945" lon="4.64903">
        <ele>431</ele>
        <time>2012-08-11T09:54:32Z</time>
      </trkpt>
      <trkpt lat="45.73947" lon="4.64943">
        <ele>427</ele>
        <time>2012-08-11T09:54:38Z</time>
      </trkpt>
      <trkpt lat="45.73925" lon="4.65037">
        <ele>421</ele>
        <time>2012-08-11T09:54:46Z</time>
      </trkpt>
      <trkpt lat="45.7391" lon="4.65073">
        <ele>414</ele>
        <time>2012-08-11T09:54:49Z</time>
      </trkpt>
      <trkpt lat="45.73907" lon="4.65121">
        <ele>412</ele>
        <time>2012-08-11T09:54:53Z</time>
      </trkpt>
      <trkpt lat="45.73924" lon="4.65198">
        <ele>414</ele>
        <time>2012-08-11T09:55:01Z</time>
      </trkpt>
      <trkpt lat="45.73926" lon="4.65217">
        <ele>414</ele>
        <time>2012-08-11T09:55:03Z</time>
      </trkpt>
      <trkpt lat="45.73926" lon="4.65249">
        <ele>413</ele>
        <time>2012-08-11T09:55:07Z</time>
      </trkpt>
      <trkpt lat="45.73876" lon="4.65293">
        <ele>412</ele>
        <time>2012-08-11T09:55:13Z</time>
      </trkpt>
      <trkpt lat="45.73848" lon="4.65327">
        <ele>412</ele>
        <time>2012-08-11T09:55:18Z</time>
      </trkpt>
      <trkpt lat="45.7383" lon="4.65386">
        <ele>411</ele>
        <time>2012-08-11T09:55:26Z</time>
      </trkpt>
      <trkpt lat="45.73826" lon="4.65419">
        <ele>413</ele>
        <time>2012-08-11T09:55:33Z</time>
      </trkpt>
      <trkpt lat="45.73826" lon="4.65429">
        <ele>413</ele>
        <time>2012-08-11T09:55:35Z</time>
      </trkpt>
      <trkpt lat="45.73827" lon="4.65512">
        <ele>414</ele>
        <time>2012-08-11T09:55:47Z</time>
      </trkpt>
      <trkpt lat="45.73827" lon="4.6552">
        <ele>413</ele>
        <time>2012-08-11T09:55:51Z</time>
      </trkpt>
      <trkpt lat="45.73828" lon="4.65574">
        <ele>415</ele>
        <time>2012-08-11T09:55:57Z</time>
      </trkpt>
      <trkpt lat="45.73824" lon="4.65591">
        <ele>416</ele>
        <time>2012-08-11T09:56:00Z</time>
      </trkpt>
      <trkpt lat="45.73816" lon="4.65608">
        <ele>415</ele>
        <time>2012-08-11T09:56:04Z</time>
      </trkpt>
      <trkpt lat="45.738" lon="4.65654">
        <ele>415</ele>
        <time>2012-08-11T09:56:13Z</time>
      </trkpt>
      <trkpt lat="45.738" lon="4.65654">
        <ele>415</ele>
        <time>2012-08-11T09:56:20Z</time>
      </trkpt>
      <trkpt lat="45.73816" lon="4.65672">
        <ele>417</ele>
        <time>2012-08-11T09:56:30Z</time>
      </trkpt>
      <trkpt lat="45.73818" lon="4.65673">
        <ele>417</ele>
        <time>2012-08-11T09:56:31Z</time>
      </trkpt>
      <trkpt lat="45.7383" lon="4.65681">
        <ele>417</ele>
        <time>2012-08-11T09:56:37Z</time>
      </trkpt>
      <trkpt lat="45.73831" lon="4.65681">
        <ele>417</ele>
        <time>2012-08-11T09:56:44Z</time>
      </trkpt>
      <trkpt lat="45.73851" lon="4.65696">
        <ele>423</ele>
        <time>2012-08-11T09:56:54Z</time>
      </trkpt>
    </trkseg>
  </trk>
</gpx>